<?xml version="1.0" encoding="UTF-8" standalone="no" ?>
<gpx xmlns="http://www.topografix.com/GPX/1/1" xmlns:xsi="http://www.w3.org/2001/XMLSchema-instance" xsi:schemaLocation="http://www.topografix.com/GPX/1/1 http://www.topografix.com/GPX/1/1/gpx.xsd" version="1.1" creator="VisuGPX - https://www.visugpx.com">
  <metadata>
    <name>La regate Camon Chalabre 16km Run &amp; Bike</name>
    <desc><![CDATA[La regate Camon Chalabre 16km Run & Bike]]></desc>
  </metadata>
  <trk>
    <name><![CDATA[Nouvelle liste de waypoints 1]]></name>
    <trkseg>
      <trkpt lat="42.9841" lon="1.93478">
        <ele>412.5</ele>
        <time>2014-02-15T09:25:25.000Z</time>
      </trkpt>
      <trkpt lat="42.98408" lon="1.93481">
        <ele>412.1</ele>
        <time>2014-02-15T09:25:26.000Z</time>
      </trkpt>
      <trkpt lat="42.98406" lon="1.93483">
        <ele>412.5</ele>
        <time>2014-02-15T09:25:27.000Z</time>
      </trkpt>
      <trkpt lat="42.98404" lon="1.93484">
        <ele>411.1</ele>
        <time>2014-02-15T09:25:28.000Z</time>
      </trkpt>
      <trkpt lat="42.98402" lon="1.93486">
        <ele>411.6</ele>
        <time>2014-02-15T09:25:29.000Z</time>
      </trkpt>
      <trkpt lat="42.98401" lon="1.93489">
        <ele>412.5</ele>
        <time>2014-02-15T09:25:30.000Z</time>
      </trkpt>
      <trkpt lat="42.98399" lon="1.93492">
        <ele>412.5</ele>
        <time>2014-02-15T09:25:31.000Z</time>
      </trkpt>
      <trkpt lat="42.98397" lon="1.93495">
        <ele>412.5</ele>
        <time>2014-02-15T09:25:32.000Z</time>
      </trkpt>
      <trkpt lat="42.98394" lon="1.93498">
        <ele>413</ele>
        <time>2014-02-15T09:25:33.000Z</time>
      </trkpt>
      <trkpt lat="42.98391" lon="1.935">
        <ele>412.1</ele>
        <time>2014-02-15T09:25:34.000Z</time>
      </trkpt>
      <trkpt lat="42.98388" lon="1.93501">
        <ele>413.5</ele>
        <time>2014-02-15T09:25:35.000Z</time>
      </trkpt>
      <trkpt lat="42.98368" lon="1.9352">
        <ele>414</ele>
        <time>2014-02-15T09:25:43.000Z</time>
      </trkpt>
      <trkpt lat="42.98367" lon="1.93525">
        <ele>413</ele>
        <time>2014-02-15T09:25:44.000Z</time>
      </trkpt>
      <trkpt lat="42.98367" lon="1.9353">
        <ele>415</ele>
        <time>2014-02-15T09:25:45.000Z</time>
      </trkpt>
      <trkpt lat="42.98368" lon="1.93535">
        <ele>414</ele>
        <time>2014-02-15T09:25:46.000Z</time>
      </trkpt>
      <trkpt lat="42.98368" lon="1.93539">
        <ele>414.5</ele>
        <time>2014-02-15T09:25:47.000Z</time>
      </trkpt>
      <trkpt lat="42.9836" lon="1.93588">
        <ele>414.5</ele>
        <time>2014-02-15T09:25:57.000Z</time>
      </trkpt>
      <trkpt lat="42.98358" lon="1.93598">
        <ele>415</ele>
        <time>2014-02-15T09:25:59.000Z</time>
      </trkpt>
      <trkpt lat="42.98351" lon="1.93632">
        <ele>415</ele>
        <time>2014-02-15T09:26:05.000Z</time>
      </trkpt>
      <trkpt lat="42.98351" lon="1.93638">
        <ele>414.5</ele>
        <time>2014-02-15T09:26:06.000Z</time>
      </trkpt>
      <trkpt lat="42.98353" lon="1.93658">
        <ele>414</ele>
        <time>2014-02-15T09:26:09.000Z</time>
      </trkpt>
      <trkpt lat="42.9835" lon="1.9371">
        <ele>412.5</ele>
        <time>2014-02-15T09:26:16.000Z</time>
      </trkpt>
      <trkpt lat="42.98345" lon="1.93734">
        <ele>411.6</ele>
        <time>2014-02-15T09:26:19.000Z</time>
      </trkpt>
      <trkpt lat="42.98343" lon="1.93741">
        <ele>411.6</ele>
        <time>2014-02-15T09:26:20.000Z</time>
      </trkpt>
      <trkpt lat="42.98316" lon="1.93831">
        <ele>407.7</ele>
        <time>2014-02-15T09:26:32.000Z</time>
      </trkpt>
      <trkpt lat="42.98313" lon="1.93839">
        <ele>408.2</ele>
        <time>2014-02-15T09:26:33.000Z</time>
      </trkpt>
      <trkpt lat="42.98308" lon="1.93858">
        <ele>407.7</ele>
        <time>2014-02-15T09:26:35.000Z</time>
      </trkpt>
      <trkpt lat="42.98305" lon="1.93879">
        <ele>407.3</ele>
        <time>2014-02-15T09:26:37.000Z</time>
      </trkpt>
      <trkpt lat="42.98305" lon="1.93889">
        <ele>407.3</ele>
        <time>2014-02-15T09:26:38.000Z</time>
      </trkpt>
      <trkpt lat="42.98307" lon="1.93898">
        <ele>406.8</ele>
        <time>2014-02-15T09:26:39.000Z</time>
      </trkpt>
      <trkpt lat="42.98311" lon="1.93907">
        <ele>407.3</ele>
        <time>2014-02-15T09:26:40.000Z</time>
      </trkpt>
      <trkpt lat="42.98315" lon="1.93914">
        <ele>405.8</ele>
        <time>2014-02-15T09:26:41.000Z</time>
      </trkpt>
      <trkpt lat="42.9832" lon="1.93919">
        <ele>406.8</ele>
        <time>2014-02-15T09:26:42.000Z</time>
      </trkpt>
      <trkpt lat="42.98325" lon="1.93923">
        <ele>407.3</ele>
        <time>2014-02-15T09:26:43.000Z</time>
      </trkpt>
      <trkpt lat="42.9833" lon="1.93928">
        <ele>407.3</ele>
        <time>2014-02-15T09:26:44.000Z</time>
      </trkpt>
      <trkpt lat="42.98334" lon="1.93934">
        <ele>407.3</ele>
        <time>2014-02-15T09:26:45.000Z</time>
      </trkpt>
      <trkpt lat="42.98338" lon="1.93939">
        <ele>406.8</ele>
        <time>2014-02-15T09:26:46.000Z</time>
      </trkpt>
      <trkpt lat="42.98394" lon="1.94008">
        <ele>407.3</ele>
        <time>2014-02-15T09:27:01.000Z</time>
      </trkpt>
      <trkpt lat="42.98455" lon="1.94083">
        <ele>406.3</ele>
        <time>2014-02-15T09:27:18.000Z</time>
      </trkpt>
      <trkpt lat="42.98516" lon="1.94157">
        <ele>405.8</ele>
        <time>2014-02-15T09:27:35.000Z</time>
      </trkpt>
      <trkpt lat="42.98519" lon="1.94162">
        <ele>405.8</ele>
        <time>2014-02-15T09:27:36.000Z</time>
      </trkpt>
      <trkpt lat="42.98551" lon="1.942">
        <ele>406.8</ele>
        <time>2014-02-15T09:27:45.000Z</time>
      </trkpt>
      <trkpt lat="42.98557" lon="1.94209">
        <ele>406.3</ele>
        <time>2014-02-15T09:27:47.000Z</time>
      </trkpt>
      <trkpt lat="42.98582" lon="1.9424">
        <ele>406.8</ele>
        <time>2014-02-15T09:27:54.000Z</time>
      </trkpt>
      <trkpt lat="42.9861" lon="1.94275">
        <ele>406.3</ele>
        <time>2014-02-15T09:28:02.000Z</time>
      </trkpt>
      <trkpt lat="42.98611" lon="1.9428">
        <ele>405.8</ele>
        <time>2014-02-15T09:28:03.000Z</time>
      </trkpt>
      <trkpt lat="42.98612" lon="1.94283">
        <ele>406.8</ele>
        <time>2014-02-15T09:28:04.000Z</time>
      </trkpt>
      <trkpt lat="42.98613" lon="1.94287">
        <ele>404.9</ele>
        <time>2014-02-15T09:28:05.000Z</time>
      </trkpt>
      <trkpt lat="42.98614" lon="1.9429">
        <ele>406.8</ele>
        <time>2014-02-15T09:28:06.000Z</time>
      </trkpt>
      <trkpt lat="42.98614" lon="1.94293">
        <ele>407.7</ele>
        <time>2014-02-15T09:28:07.000Z</time>
      </trkpt>
      <trkpt lat="42.98613" lon="1.94295">
        <ele>407.3</ele>
        <time>2014-02-15T09:28:08.000Z</time>
      </trkpt>
      <trkpt lat="42.98612" lon="1.94297">
        <ele>406.8</ele>
        <time>2014-02-15T09:28:09.000Z</time>
      </trkpt>
      <trkpt lat="42.98608" lon="1.94306">
        <ele>404.9</ele>
        <time>2014-02-15T09:28:12.000Z</time>
      </trkpt>
      <trkpt lat="42.98606" lon="1.94308">
        <ele>405.8</ele>
        <time>2014-02-15T09:28:13.000Z</time>
      </trkpt>
      <trkpt lat="42.98605" lon="1.9431">
        <ele>404.9</ele>
        <time>2014-02-15T09:28:14.000Z</time>
      </trkpt>
      <trkpt lat="42.98603" lon="1.94313">
        <ele>405.3</ele>
        <time>2014-02-15T09:28:15.000Z</time>
      </trkpt>
      <trkpt lat="42.98602" lon="1.94316">
        <ele>404.9</ele>
        <time>2014-02-15T09:28:16.000Z</time>
      </trkpt>
      <trkpt lat="42.98599" lon="1.94353">
        <ele>404.4</ele>
        <time>2014-02-15T09:28:27.000Z</time>
      </trkpt>
      <trkpt lat="42.98598" lon="1.94355">
        <ele>404.9</ele>
        <time>2014-02-15T09:28:28.000Z</time>
      </trkpt>
      <trkpt lat="42.98597" lon="1.94358">
        <ele>404.9</ele>
        <time>2014-02-15T09:28:29.000Z</time>
      </trkpt>
      <trkpt lat="42.98596" lon="1.94361">
        <ele>404.4</ele>
        <time>2014-02-15T09:28:30.000Z</time>
      </trkpt>
      <trkpt lat="42.98594" lon="1.94364">
        <ele>403.9</ele>
        <time>2014-02-15T09:28:31.000Z</time>
      </trkpt>
      <trkpt lat="42.98593" lon="1.94368">
        <ele>404.4</ele>
        <time>2014-02-15T09:28:32.000Z</time>
      </trkpt>
      <trkpt lat="42.98592" lon="1.94372">
        <ele>403.9</ele>
        <time>2014-02-15T09:28:33.000Z</time>
      </trkpt>
      <trkpt lat="42.98572" lon="1.94398">
        <ele>403.9</ele>
        <time>2014-02-15T09:28:41.000Z</time>
      </trkpt>
      <trkpt lat="42.98556" lon="1.94431">
        <ele>403.9</ele>
        <time>2014-02-15T09:28:51.000Z</time>
      </trkpt>
      <trkpt lat="42.98553" lon="1.9445">
        <ele>406.3</ele>
        <time>2014-02-15T09:28:56.000Z</time>
      </trkpt>
      <trkpt lat="42.98539" lon="1.94499">
        <ele>404.4</ele>
        <time>2014-02-15T09:29:06.000Z</time>
      </trkpt>
      <trkpt lat="42.98535" lon="1.94532">
        <ele>405.3</ele>
        <time>2014-02-15T09:29:14.000Z</time>
      </trkpt>
      <trkpt lat="42.98534" lon="1.94535">
        <ele>404.9</ele>
        <time>2014-02-15T09:29:15.000Z</time>
      </trkpt>
      <trkpt lat="42.98534" lon="1.94539">
        <ele>404.9</ele>
        <time>2014-02-15T09:29:16.000Z</time>
      </trkpt>
      <trkpt lat="42.98531" lon="1.94554">
        <ele>404.4</ele>
        <time>2014-02-15T09:29:20.000Z</time>
      </trkpt>
      <trkpt lat="42.98529" lon="1.94558">
        <ele>404.9</ele>
        <time>2014-02-15T09:29:21.000Z</time>
      </trkpt>
      <trkpt lat="42.98523" lon="1.94566">
        <ele>404.4</ele>
        <time>2014-02-15T09:29:23.000Z</time>
      </trkpt>
      <trkpt lat="42.9852" lon="1.94574">
        <ele>403.4</ele>
        <time>2014-02-15T09:29:25.000Z</time>
      </trkpt>
      <trkpt lat="42.9851" lon="1.94608">
        <ele>402.9</ele>
        <time>2014-02-15T09:29:35.000Z</time>
      </trkpt>
      <trkpt lat="42.9851" lon="1.94612">
        <ele>404.4</ele>
        <time>2014-02-15T09:29:36.000Z</time>
      </trkpt>
      <trkpt lat="42.9851" lon="1.94615">
        <ele>403.9</ele>
        <time>2014-02-15T09:29:37.000Z</time>
      </trkpt>
      <trkpt lat="42.98507" lon="1.9465">
        <ele>403.9</ele>
        <time>2014-02-15T09:29:47.000Z</time>
      </trkpt>
      <trkpt lat="42.98495" lon="1.94682">
        <ele>403.4</ele>
        <time>2014-02-15T09:29:56.000Z</time>
      </trkpt>
      <trkpt lat="42.98493" lon="1.94702">
        <ele>402.5</ele>
        <time>2014-02-15T09:30:03.000Z</time>
      </trkpt>
      <trkpt lat="42.98493" lon="1.94704">
        <ele>402.9</ele>
        <time>2014-02-15T09:30:04.000Z</time>
      </trkpt>
      <trkpt lat="42.98497" lon="1.9473">
        <ele>403.4</ele>
        <time>2014-02-15T09:30:15.000Z</time>
      </trkpt>
      <trkpt lat="42.98498" lon="1.94732">
        <ele>403.4</ele>
        <time>2014-02-15T09:30:16.000Z</time>
      </trkpt>
      <trkpt lat="42.98499" lon="1.94735">
        <ele>403.4</ele>
        <time>2014-02-15T09:30:17.000Z</time>
      </trkpt>
      <trkpt lat="42.985" lon="1.94744">
        <ele>404.9</ele>
        <time>2014-02-15T09:30:21.000Z</time>
      </trkpt>
      <trkpt lat="42.98499" lon="1.94748">
        <ele>404.9</ele>
        <time>2014-02-15T09:30:23.000Z</time>
      </trkpt>
      <trkpt lat="42.98497" lon="1.94767">
        <ele>404.9</ele>
        <time>2014-02-15T09:30:29.000Z</time>
      </trkpt>
      <trkpt lat="42.98497" lon="1.9477">
        <ele>405.3</ele>
        <time>2014-02-15T09:30:30.000Z</time>
      </trkpt>
      <trkpt lat="42.98497" lon="1.94773">
        <ele>405.3</ele>
        <time>2014-02-15T09:30:31.000Z</time>
      </trkpt>
      <trkpt lat="42.98497" lon="1.94776">
        <ele>404.9</ele>
        <time>2014-02-15T09:30:32.000Z</time>
      </trkpt>
      <trkpt lat="42.98496" lon="1.94779">
        <ele>404.4</ele>
        <time>2014-02-15T09:30:33.000Z</time>
      </trkpt>
      <trkpt lat="42.98495" lon="1.94782">
        <ele>404.9</ele>
        <time>2014-02-15T09:30:34.000Z</time>
      </trkpt>
      <trkpt lat="42.98493" lon="1.94786">
        <ele>404.4</ele>
        <time>2014-02-15T09:30:35.000Z</time>
      </trkpt>
      <trkpt lat="42.9849" lon="1.94792">
        <ele>405.3</ele>
        <time>2014-02-15T09:30:37.000Z</time>
      </trkpt>
      <trkpt lat="42.9849" lon="1.94795">
        <ele>404.9</ele>
        <time>2014-02-15T09:30:38.000Z</time>
      </trkpt>
      <trkpt lat="42.98491" lon="1.94797">
        <ele>404.4</ele>
        <time>2014-02-15T09:30:39.000Z</time>
      </trkpt>
      <trkpt lat="42.9849" lon="1.948">
        <ele>405.3</ele>
        <time>2014-02-15T09:30:40.000Z</time>
      </trkpt>
      <trkpt lat="42.9849" lon="1.94803">
        <ele>404.9</ele>
        <time>2014-02-15T09:30:41.000Z</time>
      </trkpt>
      <trkpt lat="42.98489" lon="1.94807">
        <ele>403.9</ele>
        <time>2014-02-15T09:30:42.000Z</time>
      </trkpt>
      <trkpt lat="42.98489" lon="1.94811">
        <ele>404.4</ele>
        <time>2014-02-15T09:30:43.000Z</time>
      </trkpt>
      <trkpt lat="42.98489" lon="1.94815">
        <ele>403.9</ele>
        <time>2014-02-15T09:30:44.000Z</time>
      </trkpt>
      <trkpt lat="42.98489" lon="1.94827">
        <ele>404.4</ele>
        <time>2014-02-15T09:30:48.000Z</time>
      </trkpt>
      <trkpt lat="42.9849" lon="1.9483">
        <ele>404.9</ele>
        <time>2014-02-15T09:30:49.000Z</time>
      </trkpt>
      <trkpt lat="42.98491" lon="1.94832">
        <ele>405.3</ele>
        <time>2014-02-15T09:30:50.000Z</time>
      </trkpt>
      <trkpt lat="42.98491" lon="1.94835">
        <ele>404.9</ele>
        <time>2014-02-15T09:30:51.000Z</time>
      </trkpt>
      <trkpt lat="42.98491" lon="1.94838">
        <ele>404.4</ele>
        <time>2014-02-15T09:30:52.000Z</time>
      </trkpt>
      <trkpt lat="42.98491" lon="1.94841">
        <ele>404.9</ele>
        <time>2014-02-15T09:30:53.000Z</time>
      </trkpt>
      <trkpt lat="42.98487" lon="1.94874">
        <ele>404.9</ele>
        <time>2014-02-15T09:31:03.000Z</time>
      </trkpt>
      <trkpt lat="42.98486" lon="1.94877">
        <ele>404.9</ele>
        <time>2014-02-15T09:31:04.000Z</time>
      </trkpt>
      <trkpt lat="42.98486" lon="1.9491">
        <ele>405.3</ele>
        <time>2014-02-15T09:31:14.000Z</time>
      </trkpt>
      <trkpt lat="42.9848" lon="1.94934">
        <ele>404.9</ele>
        <time>2014-02-15T09:31:23.000Z</time>
      </trkpt>
      <trkpt lat="42.98481" lon="1.94939">
        <ele>404.4</ele>
        <time>2014-02-15T09:31:25.000Z</time>
      </trkpt>
      <trkpt lat="42.98482" lon="1.94941">
        <ele>404.9</ele>
        <time>2014-02-15T09:31:26.000Z</time>
      </trkpt>
      <trkpt lat="42.98482" lon="1.94944">
        <ele>404.9</ele>
        <time>2014-02-15T09:31:27.000Z</time>
      </trkpt>
      <trkpt lat="42.98482" lon="1.94948">
        <ele>405.3</ele>
        <time>2014-02-15T09:31:28.000Z</time>
      </trkpt>
      <trkpt lat="42.98482" lon="1.9495">
        <ele>405.3</ele>
        <time>2014-02-15T09:31:29.000Z</time>
      </trkpt>
      <trkpt lat="42.98482" lon="1.94952">
        <ele>405.3</ele>
        <time>2014-02-15T09:31:30.000Z</time>
      </trkpt>
      <trkpt lat="42.98483" lon="1.94955">
        <ele>405.8</ele>
        <time>2014-02-15T09:31:31.000Z</time>
      </trkpt>
      <trkpt lat="42.98484" lon="1.94957">
        <ele>405.8</ele>
        <time>2014-02-15T09:31:32.000Z</time>
      </trkpt>
      <trkpt lat="42.98486" lon="1.94974">
        <ele>404.9</ele>
        <time>2014-02-15T09:31:39.000Z</time>
      </trkpt>
      <trkpt lat="42.98486" lon="1.94976">
        <ele>405.3</ele>
        <time>2014-02-15T09:31:40.000Z</time>
      </trkpt>
      <trkpt lat="42.98486" lon="1.9498">
        <ele>405.3</ele>
        <time>2014-02-15T09:31:41.000Z</time>
      </trkpt>
      <trkpt lat="42.98485" lon="1.94984">
        <ele>405.3</ele>
        <time>2014-02-15T09:31:42.000Z</time>
      </trkpt>
      <trkpt lat="42.98483" lon="1.94986">
        <ele>405.3</ele>
        <time>2014-02-15T09:31:43.000Z</time>
      </trkpt>
      <trkpt lat="42.98481" lon="1.95003">
        <ele>404.9</ele>
        <time>2014-02-15T09:31:48.000Z</time>
      </trkpt>
      <trkpt lat="42.98482" lon="1.95005">
        <ele>404.4</ele>
        <time>2014-02-15T09:31:49.000Z</time>
      </trkpt>
      <trkpt lat="42.98483" lon="1.95009">
        <ele>405.3</ele>
        <time>2014-02-15T09:31:51.000Z</time>
      </trkpt>
      <trkpt lat="42.98483" lon="1.95012">
        <ele>405.3</ele>
        <time>2014-02-15T09:31:52.000Z</time>
      </trkpt>
      <trkpt lat="42.98483" lon="1.95015">
        <ele>404.9</ele>
        <time>2014-02-15T09:31:53.000Z</time>
      </trkpt>
      <trkpt lat="42.98483" lon="1.95018">
        <ele>404.4</ele>
        <time>2014-02-15T09:31:54.000Z</time>
      </trkpt>
      <trkpt lat="42.98483" lon="1.95022">
        <ele>405.3</ele>
        <time>2014-02-15T09:31:55.000Z</time>
      </trkpt>
      <trkpt lat="42.98479" lon="1.9505">
        <ele>403.4</ele>
        <time>2014-02-15T09:32:02.000Z</time>
      </trkpt>
      <trkpt lat="42.9848" lon="1.95052">
        <ele>403.4</ele>
        <time>2014-02-15T09:32:03.000Z</time>
      </trkpt>
      <trkpt lat="42.98481" lon="1.95056">
        <ele>403.9</ele>
        <time>2014-02-15T09:32:05.000Z</time>
      </trkpt>
      <trkpt lat="42.98482" lon="1.95062">
        <ele>403.4</ele>
        <time>2014-02-15T09:32:08.000Z</time>
      </trkpt>
      <trkpt lat="42.98484" lon="1.95071">
        <ele>403.9</ele>
        <time>2014-02-15T09:32:11.000Z</time>
      </trkpt>
      <trkpt lat="42.98485" lon="1.95073">
        <ele>404.4</ele>
        <time>2014-02-15T09:32:12.000Z</time>
      </trkpt>
      <trkpt lat="42.98486" lon="1.95075">
        <ele>403.9</ele>
        <time>2014-02-15T09:32:13.000Z</time>
      </trkpt>
      <trkpt lat="42.98487" lon="1.95078">
        <ele>404.4</ele>
        <time>2014-02-15T09:32:14.000Z</time>
      </trkpt>
      <trkpt lat="42.98489" lon="1.95084">
        <ele>404.9</ele>
        <time>2014-02-15T09:32:17.000Z</time>
      </trkpt>
      <trkpt lat="42.98489" lon="1.95086">
        <ele>405.3</ele>
        <time>2014-02-15T09:32:18.000Z</time>
      </trkpt>
      <trkpt lat="42.9849" lon="1.95089">
        <ele>404.4</ele>
        <time>2014-02-15T09:32:19.000Z</time>
      </trkpt>
      <trkpt lat="42.9849" lon="1.95092">
        <ele>404.9</ele>
        <time>2014-02-15T09:32:20.000Z</time>
      </trkpt>
      <trkpt lat="42.98491" lon="1.95097">
        <ele>404.9</ele>
        <time>2014-02-15T09:32:22.000Z</time>
      </trkpt>
      <trkpt lat="42.98491" lon="1.95099">
        <ele>405.8</ele>
        <time>2014-02-15T09:32:23.000Z</time>
      </trkpt>
      <trkpt lat="42.98491" lon="1.95102">
        <ele>405.3</ele>
        <time>2014-02-15T09:32:24.000Z</time>
      </trkpt>
      <trkpt lat="42.98491" lon="1.95106">
        <ele>405.8</ele>
        <time>2014-02-15T09:32:25.000Z</time>
      </trkpt>
      <trkpt lat="42.98491" lon="1.95108">
        <ele>405.3</ele>
        <time>2014-02-15T09:32:26.000Z</time>
      </trkpt>
      <trkpt lat="42.98492" lon="1.95111">
        <ele>405.3</ele>
        <time>2014-02-15T09:32:27.000Z</time>
      </trkpt>
      <trkpt lat="42.98493" lon="1.95118">
        <ele>406.3</ele>
        <time>2014-02-15T09:32:31.000Z</time>
      </trkpt>
      <trkpt lat="42.98492" lon="1.9512">
        <ele>406.3</ele>
        <time>2014-02-15T09:32:32.000Z</time>
      </trkpt>
      <trkpt lat="42.98492" lon="1.95123">
        <ele>406.3</ele>
        <time>2014-02-15T09:32:33.000Z</time>
      </trkpt>
      <trkpt lat="42.98491" lon="1.95127">
        <ele>405.3</ele>
        <time>2014-02-15T09:32:34.000Z</time>
      </trkpt>
      <trkpt lat="42.98491" lon="1.95131">
        <ele>405.8</ele>
        <time>2014-02-15T09:32:35.000Z</time>
      </trkpt>
      <trkpt lat="42.9849" lon="1.95136">
        <ele>406.3</ele>
        <time>2014-02-15T09:32:36.000Z</time>
      </trkpt>
      <trkpt lat="42.98488" lon="1.95161">
        <ele>405.8</ele>
        <time>2014-02-15T09:32:44.000Z</time>
      </trkpt>
      <trkpt lat="42.98486" lon="1.95171">
        <ele>405.3</ele>
        <time>2014-02-15T09:32:47.000Z</time>
      </trkpt>
      <trkpt lat="42.98485" lon="1.95181">
        <ele>406.8</ele>
        <time>2014-02-15T09:32:50.000Z</time>
      </trkpt>
      <trkpt lat="42.9848" lon="1.952">
        <ele>405.3</ele>
        <time>2014-02-15T09:32:58.000Z</time>
      </trkpt>
      <trkpt lat="42.9848" lon="1.95229">
        <ele>404.9</ele>
        <time>2014-02-15T09:33:09.000Z</time>
      </trkpt>
      <trkpt lat="42.98479" lon="1.95233">
        <ele>405.3</ele>
        <time>2014-02-15T09:33:23.000Z</time>
      </trkpt>
      <trkpt lat="42.98479" lon="1.95233">
        <ele>405.8</ele>
        <time>2014-02-15T09:33:40.000Z</time>
      </trkpt>
      <trkpt lat="42.98478" lon="1.95237">
        <ele>403.9</ele>
        <time>2014-02-15T09:33:43.000Z</time>
      </trkpt>
      <trkpt lat="42.98479" lon="1.95242">
        <ele>403.4</ele>
        <time>2014-02-15T09:33:47.000Z</time>
      </trkpt>
      <trkpt lat="42.98477" lon="1.95251">
        <ele>403.9</ele>
        <time>2014-02-15T09:33:51.000Z</time>
      </trkpt>
      <trkpt lat="42.98476" lon="1.95259">
        <ele>404.4</ele>
        <time>2014-02-15T09:33:54.000Z</time>
      </trkpt>
      <trkpt lat="42.98472" lon="1.95271">
        <ele>403.9</ele>
        <time>2014-02-15T09:33:59.000Z</time>
      </trkpt>
      <trkpt lat="42.9847" lon="1.95294">
        <ele>403.9</ele>
        <time>2014-02-15T09:34:11.000Z</time>
      </trkpt>
      <trkpt lat="42.9847" lon="1.95304">
        <ele>405.3</ele>
        <time>2014-02-15T09:34:24.000Z</time>
      </trkpt>
      <trkpt lat="42.9847" lon="1.95305">
        <ele>404.9</ele>
        <time>2014-02-15T09:34:53.000Z</time>
      </trkpt>
      <trkpt lat="42.9847" lon="1.95305">
        <ele>405.8</ele>
        <time>2014-02-15T09:35:25.000Z</time>
      </trkpt>
      <trkpt lat="42.9847" lon="1.95309">
        <ele>404.9</ele>
        <time>2014-02-15T09:36:07.000Z</time>
      </trkpt>
      <trkpt lat="42.98469" lon="1.95311">
        <ele>404.4</ele>
        <time>2014-02-15T09:36:17.000Z</time>
      </trkpt>
      <trkpt lat="42.98468" lon="1.95317">
        <ele>404.9</ele>
        <time>2014-02-15T09:36:21.000Z</time>
      </trkpt>
      <trkpt lat="42.98469" lon="1.95338">
        <ele>405.3</ele>
        <time>2014-02-15T09:36:32.000Z</time>
      </trkpt>
      <trkpt lat="42.98466" lon="1.95349">
        <ele>405.3</ele>
        <time>2014-02-15T09:36:37.000Z</time>
      </trkpt>
      <trkpt lat="42.9846" lon="1.95376">
        <ele>404.9</ele>
        <time>2014-02-15T09:36:47.000Z</time>
      </trkpt>
      <trkpt lat="42.9846" lon="1.95378">
        <ele>405.3</ele>
        <time>2014-02-15T09:36:48.000Z</time>
      </trkpt>
      <trkpt lat="42.98453" lon="1.95403">
        <ele>404.4</ele>
        <time>2014-02-15T09:37:00.000Z</time>
      </trkpt>
      <trkpt lat="42.98458" lon="1.95431">
        <ele>404.9</ele>
        <time>2014-02-15T09:37:13.000Z</time>
      </trkpt>
      <trkpt lat="42.9846" lon="1.95455">
        <ele>404.9</ele>
        <time>2014-02-15T09:37:21.000Z</time>
      </trkpt>
      <trkpt lat="42.9847" lon="1.95471">
        <ele>405.3</ele>
        <time>2014-02-15T09:37:31.000Z</time>
      </trkpt>
      <trkpt lat="42.98477" lon="1.95475">
        <ele>404.9</ele>
        <time>2014-02-15T09:37:36.000Z</time>
      </trkpt>
      <trkpt lat="42.98506" lon="1.95475">
        <ele>404.4</ele>
        <time>2014-02-15T09:37:49.000Z</time>
      </trkpt>
      <trkpt lat="42.98527" lon="1.95471">
        <ele>405.3</ele>
        <time>2014-02-15T09:37:58.000Z</time>
      </trkpt>
      <trkpt lat="42.9854" lon="1.95467">
        <ele>406.3</ele>
        <time>2014-02-15T09:38:03.000Z</time>
      </trkpt>
      <trkpt lat="42.98556" lon="1.95464">
        <ele>407.7</ele>
        <time>2014-02-15T09:38:09.000Z</time>
      </trkpt>
      <trkpt lat="42.98578" lon="1.95471">
        <ele>407.7</ele>
        <time>2014-02-15T09:38:19.000Z</time>
      </trkpt>
      <trkpt lat="42.98598" lon="1.95468">
        <ele>403.9</ele>
        <time>2014-02-15T09:38:26.000Z</time>
      </trkpt>
      <trkpt lat="42.986" lon="1.95465">
        <ele>404.4</ele>
        <time>2014-02-15T09:38:27.000Z</time>
      </trkpt>
      <trkpt lat="42.98602" lon="1.95456">
        <ele>404.4</ele>
        <time>2014-02-15T09:38:30.000Z</time>
      </trkpt>
      <trkpt lat="42.98608" lon="1.95445">
        <ele>404.4</ele>
        <time>2014-02-15T09:38:35.000Z</time>
      </trkpt>
      <trkpt lat="42.98613" lon="1.95415">
        <ele>403.9</ele>
        <time>2014-02-15T09:38:45.000Z</time>
      </trkpt>
      <trkpt lat="42.98615" lon="1.95408">
        <ele>404.4</ele>
        <time>2014-02-15T09:38:48.000Z</time>
      </trkpt>
      <trkpt lat="42.98616" lon="1.95368">
        <ele>405.8</ele>
        <time>2014-02-15T09:39:00.000Z</time>
      </trkpt>
      <trkpt lat="42.98617" lon="1.95361">
        <ele>404.9</ele>
        <time>2014-02-15T09:39:02.000Z</time>
      </trkpt>
      <trkpt lat="42.98627" lon="1.95327">
        <ele>404.4</ele>
        <time>2014-02-15T09:39:13.000Z</time>
      </trkpt>
      <trkpt lat="42.98627" lon="1.95292">
        <ele>402.5</ele>
        <time>2014-02-15T09:39:21.000Z</time>
      </trkpt>
      <trkpt lat="42.98628" lon="1.95288">
        <ele>402.9</ele>
        <time>2014-02-15T09:39:22.000Z</time>
      </trkpt>
      <trkpt lat="42.98636" lon="1.95275">
        <ele>403.9</ele>
        <time>2014-02-15T09:39:26.000Z</time>
      </trkpt>
      <trkpt lat="42.98659" lon="1.95221">
        <ele>402.5</ele>
        <time>2014-02-15T09:39:36.000Z</time>
      </trkpt>
      <trkpt lat="42.98674" lon="1.95185">
        <ele>403.4</ele>
        <time>2014-02-15T09:39:45.000Z</time>
      </trkpt>
      <trkpt lat="42.98677" lon="1.95179">
        <ele>402.5</ele>
        <time>2014-02-15T09:39:47.000Z</time>
      </trkpt>
      <trkpt lat="42.98684" lon="1.9516">
        <ele>402.9</ele>
        <time>2014-02-15T09:39:52.000Z</time>
      </trkpt>
      <trkpt lat="42.98696" lon="1.95143">
        <ele>403.9</ele>
        <time>2014-02-15T09:39:57.000Z</time>
      </trkpt>
      <trkpt lat="42.98716" lon="1.95117">
        <ele>402.5</ele>
        <time>2014-02-15T09:40:07.000Z</time>
      </trkpt>
      <trkpt lat="42.98731" lon="1.95096">
        <ele>402.9</ele>
        <time>2014-02-15T09:40:16.000Z</time>
      </trkpt>
      <trkpt lat="42.98733" lon="1.95085">
        <ele>402</ele>
        <time>2014-02-15T09:40:27.000Z</time>
      </trkpt>
      <trkpt lat="42.98733" lon="1.95085">
        <ele>402.5</ele>
        <time>2014-02-15T09:40:56.000Z</time>
      </trkpt>
      <trkpt lat="42.98744" lon="1.95062">
        <ele>402.5</ele>
        <time>2014-02-15T09:41:05.000Z</time>
      </trkpt>
      <trkpt lat="42.98761" lon="1.95034">
        <ele>402.5</ele>
        <time>2014-02-15T09:41:13.000Z</time>
      </trkpt>
      <trkpt lat="42.98773" lon="1.94993">
        <ele>402</ele>
        <time>2014-02-15T09:41:25.000Z</time>
      </trkpt>
      <trkpt lat="42.98774" lon="1.94985">
        <ele>401</ele>
        <time>2014-02-15T09:41:27.000Z</time>
      </trkpt>
      <trkpt lat="42.98778" lon="1.94945">
        <ele>401</ele>
        <time>2014-02-15T09:41:38.000Z</time>
      </trkpt>
      <trkpt lat="42.98782" lon="1.94911">
        <ele>403.4</ele>
        <time>2014-02-15T09:41:47.000Z</time>
      </trkpt>
      <trkpt lat="42.98783" lon="1.94907">
        <ele>402</ele>
        <time>2014-02-15T09:41:49.000Z</time>
      </trkpt>
      <trkpt lat="42.98788" lon="1.94895">
        <ele>403.4</ele>
        <time>2014-02-15T09:41:52.000Z</time>
      </trkpt>
      <trkpt lat="42.98797" lon="1.94885">
        <ele>401.5</ele>
        <time>2014-02-15T09:41:57.000Z</time>
      </trkpt>
      <trkpt lat="42.98804" lon="1.94879">
        <ele>402</ele>
        <time>2014-02-15T09:42:02.000Z</time>
      </trkpt>
      <trkpt lat="42.98813" lon="1.9488">
        <ele>401.5</ele>
        <time>2014-02-15T09:42:09.000Z</time>
      </trkpt>
      <trkpt lat="42.98824" lon="1.9488">
        <ele>402.5</ele>
        <time>2014-02-15T09:42:20.000Z</time>
      </trkpt>
      <trkpt lat="42.98828" lon="1.94885">
        <ele>402</ele>
        <time>2014-02-15T09:42:23.000Z</time>
      </trkpt>
      <trkpt lat="42.98838" lon="1.94898">
        <ele>400.1</ele>
        <time>2014-02-15T09:42:30.000Z</time>
      </trkpt>
      <trkpt lat="42.98844" lon="1.94904">
        <ele>400.5</ele>
        <time>2014-02-15T09:42:33.000Z</time>
      </trkpt>
      <trkpt lat="42.98858" lon="1.94919">
        <ele>401.5</ele>
        <time>2014-02-15T09:42:42.000Z</time>
      </trkpt>
      <trkpt lat="42.98869" lon="1.94917">
        <ele>403.4</ele>
        <time>2014-02-15T09:42:49.000Z</time>
      </trkpt>
      <trkpt lat="42.98873" lon="1.9492">
        <ele>403.4</ele>
        <time>2014-02-15T09:42:52.000Z</time>
      </trkpt>
      <trkpt lat="42.98874" lon="1.94923">
        <ele>403.4</ele>
        <time>2014-02-15T09:42:54.000Z</time>
      </trkpt>
      <trkpt lat="42.98875" lon="1.94926">
        <ele>402.5</ele>
        <time>2014-02-15T09:42:56.000Z</time>
      </trkpt>
      <trkpt lat="42.98893" lon="1.94919">
        <ele>401</ele>
        <time>2014-02-15T09:43:06.000Z</time>
      </trkpt>
      <trkpt lat="42.98911" lon="1.94904">
        <ele>402.5</ele>
        <time>2014-02-15T09:43:16.000Z</time>
      </trkpt>
      <trkpt lat="42.98916" lon="1.94902">
        <ele>402.5</ele>
        <time>2014-02-15T09:43:20.000Z</time>
      </trkpt>
      <trkpt lat="42.98926" lon="1.94903">
        <ele>402</ele>
        <time>2014-02-15T09:43:25.000Z</time>
      </trkpt>
      <trkpt lat="42.98935" lon="1.9491">
        <ele>401.5</ele>
        <time>2014-02-15T09:43:30.000Z</time>
      </trkpt>
      <trkpt lat="42.98954" lon="1.94903">
        <ele>401.5</ele>
        <time>2014-02-15T09:43:41.000Z</time>
      </trkpt>
      <trkpt lat="42.98977" lon="1.94893">
        <ele>402</ele>
        <time>2014-02-15T09:43:54.000Z</time>
      </trkpt>
      <trkpt lat="42.98978" lon="1.94892">
        <ele>402.5</ele>
        <time>2014-02-15T09:43:55.000Z</time>
      </trkpt>
      <trkpt lat="42.98987" lon="1.9489">
        <ele>401</ele>
        <time>2014-02-15T09:44:01.000Z</time>
      </trkpt>
      <trkpt lat="42.98992" lon="1.94885">
        <ele>401</ele>
        <time>2014-02-15T09:44:05.000Z</time>
      </trkpt>
      <trkpt lat="42.98996" lon="1.94878">
        <ele>402</ele>
        <time>2014-02-15T09:44:09.000Z</time>
      </trkpt>
      <trkpt lat="42.99005" lon="1.94872">
        <ele>400.5</ele>
        <time>2014-02-15T09:44:13.000Z</time>
      </trkpt>
      <trkpt lat="42.99024" lon="1.94863">
        <ele>400.5</ele>
        <time>2014-02-15T09:44:23.000Z</time>
      </trkpt>
      <trkpt lat="42.99033" lon="1.94855">
        <ele>401.5</ele>
        <time>2014-02-15T09:44:29.000Z</time>
      </trkpt>
      <trkpt lat="42.99042" lon="1.94838">
        <ele>401</ele>
        <time>2014-02-15T09:44:37.000Z</time>
      </trkpt>
      <trkpt lat="42.99055" lon="1.94814">
        <ele>402</ele>
        <time>2014-02-15T09:44:48.000Z</time>
      </trkpt>
      <trkpt lat="42.99062" lon="1.94792">
        <ele>401</ele>
        <time>2014-02-15T09:44:56.000Z</time>
      </trkpt>
      <trkpt lat="42.99076" lon="1.94772">
        <ele>400.5</ele>
        <time>2014-02-15T09:45:03.000Z</time>
      </trkpt>
      <trkpt lat="42.99089" lon="1.94765">
        <ele>401</ele>
        <time>2014-02-15T09:45:08.000Z</time>
      </trkpt>
      <trkpt lat="42.99104" lon="1.94767">
        <ele>400.5</ele>
        <time>2014-02-15T09:45:13.000Z</time>
      </trkpt>
      <trkpt lat="42.99106" lon="1.94767">
        <ele>399.1</ele>
        <time>2014-02-15T09:45:22.000Z</time>
      </trkpt>
      <trkpt lat="42.99106" lon="1.94767">
        <ele>400.1</ele>
        <time>2014-02-15T09:45:35.000Z</time>
      </trkpt>
      <trkpt lat="42.99106" lon="1.94767">
        <ele>399.6</ele>
        <time>2014-02-15T09:45:49.000Z</time>
      </trkpt>
      <trkpt lat="42.99114" lon="1.94773">
        <ele>399.6</ele>
        <time>2014-02-15T09:45:56.000Z</time>
      </trkpt>
      <trkpt lat="42.99119" lon="1.94784">
        <ele>399.6</ele>
        <time>2014-02-15T09:46:01.000Z</time>
      </trkpt>
      <trkpt lat="42.9912" lon="1.94799">
        <ele>399.1</ele>
        <time>2014-02-15T09:46:06.000Z</time>
      </trkpt>
      <trkpt lat="42.99123" lon="1.94813">
        <ele>399.6</ele>
        <time>2014-02-15T09:46:12.000Z</time>
      </trkpt>
      <trkpt lat="42.99123" lon="1.94825">
        <ele>399.6</ele>
        <time>2014-02-15T09:46:16.000Z</time>
      </trkpt>
      <trkpt lat="42.99129" lon="1.94849">
        <ele>399.6</ele>
        <time>2014-02-15T09:46:25.000Z</time>
      </trkpt>
      <trkpt lat="42.99132" lon="1.94862">
        <ele>400.5</ele>
        <time>2014-02-15T09:46:30.000Z</time>
      </trkpt>
      <trkpt lat="42.99132" lon="1.94868">
        <ele>402</ele>
        <time>2014-02-15T09:46:33.000Z</time>
      </trkpt>
      <trkpt lat="42.99131" lon="1.94884">
        <ele>401</ele>
        <time>2014-02-15T09:46:39.000Z</time>
      </trkpt>
      <trkpt lat="42.99126" lon="1.94894">
        <ele>400.5</ele>
        <time>2014-02-15T09:46:44.000Z</time>
      </trkpt>
      <trkpt lat="42.99121" lon="1.94897">
        <ele>400.1</ele>
        <time>2014-02-15T09:46:47.000Z</time>
      </trkpt>
      <trkpt lat="42.99117" lon="1.9491">
        <ele>399.6</ele>
        <time>2014-02-15T09:46:52.000Z</time>
      </trkpt>
      <trkpt lat="42.99113" lon="1.94928">
        <ele>398.1</ele>
        <time>2014-02-15T09:47:00.000Z</time>
      </trkpt>
      <trkpt lat="42.99111" lon="1.94941">
        <ele>400.5</ele>
        <time>2014-02-15T09:47:05.000Z</time>
      </trkpt>
      <trkpt lat="42.99113" lon="1.94955">
        <ele>399.6</ele>
        <time>2014-02-15T09:47:10.000Z</time>
      </trkpt>
      <trkpt lat="42.99118" lon="1.94984">
        <ele>399.6</ele>
        <time>2014-02-15T09:47:20.000Z</time>
      </trkpt>
      <trkpt lat="42.9911" lon="1.94992">
        <ele>400.1</ele>
        <time>2014-02-15T09:47:24.000Z</time>
      </trkpt>
      <trkpt lat="42.99106" lon="1.94993">
        <ele>398.6</ele>
        <time>2014-02-15T09:47:26.000Z</time>
      </trkpt>
      <trkpt lat="42.99087" lon="1.94987">
        <ele>399.1</ele>
        <time>2014-02-15T09:47:35.000Z</time>
      </trkpt>
      <trkpt lat="42.99078" lon="1.94997">
        <ele>398.6</ele>
        <time>2014-02-15T09:47:44.000Z</time>
      </trkpt>
      <trkpt lat="42.99076" lon="1.95">
        <ele>399.6</ele>
        <time>2014-02-15T09:47:47.000Z</time>
      </trkpt>
      <trkpt lat="42.99074" lon="1.95011">
        <ele>401</ele>
        <time>2014-02-15T09:47:52.000Z</time>
      </trkpt>
      <trkpt lat="42.99064" lon="1.95023">
        <ele>402</ele>
        <time>2014-02-15T09:47:57.000Z</time>
      </trkpt>
      <trkpt lat="42.99052" lon="1.9505">
        <ele>400.5</ele>
        <time>2014-02-15T09:48:06.000Z</time>
      </trkpt>
      <trkpt lat="42.9905" lon="1.95076">
        <ele>400.5</ele>
        <time>2014-02-15T09:48:13.000Z</time>
      </trkpt>
      <trkpt lat="42.99048" lon="1.95089">
        <ele>400.5</ele>
        <time>2014-02-15T09:48:17.000Z</time>
      </trkpt>
      <trkpt lat="42.99049" lon="1.95098">
        <ele>400.5</ele>
        <time>2014-02-15T09:48:19.000Z</time>
      </trkpt>
      <trkpt lat="42.99043" lon="1.95131">
        <ele>399.1</ele>
        <time>2014-02-15T09:48:27.000Z</time>
      </trkpt>
      <trkpt lat="42.99043" lon="1.9514">
        <ele>398.6</ele>
        <time>2014-02-15T09:48:30.000Z</time>
      </trkpt>
      <trkpt lat="42.99046" lon="1.95167">
        <ele>399.1</ele>
        <time>2014-02-15T09:48:38.000Z</time>
      </trkpt>
      <trkpt lat="42.99048" lon="1.95177">
        <ele>398.1</ele>
        <time>2014-02-15T09:48:40.000Z</time>
      </trkpt>
      <trkpt lat="42.9905" lon="1.95178">
        <ele>398.1</ele>
        <time>2014-02-15T09:48:41.000Z</time>
      </trkpt>
      <trkpt lat="42.99053" lon="1.95185">
        <ele>398.1</ele>
        <time>2014-02-15T09:48:44.000Z</time>
      </trkpt>
      <trkpt lat="42.99066" lon="1.95209">
        <ele>400.1</ele>
        <time>2014-02-15T09:48:53.000Z</time>
      </trkpt>
      <trkpt lat="42.99067" lon="1.95211">
        <ele>399.6</ele>
        <time>2014-02-15T09:48:54.000Z</time>
      </trkpt>
      <trkpt lat="42.99069" lon="1.95216">
        <ele>400.1</ele>
        <time>2014-02-15T09:48:56.000Z</time>
      </trkpt>
      <trkpt lat="42.99072" lon="1.95226">
        <ele>399.1</ele>
        <time>2014-02-15T09:49:00.000Z</time>
      </trkpt>
      <trkpt lat="42.99073" lon="1.9523">
        <ele>399.1</ele>
        <time>2014-02-15T09:49:02.000Z</time>
      </trkpt>
      <trkpt lat="42.99076" lon="1.95232">
        <ele>398.6</ele>
        <time>2014-02-15T09:49:04.000Z</time>
      </trkpt>
      <trkpt lat="42.99085" lon="1.95245">
        <ele>398.6</ele>
        <time>2014-02-15T09:49:10.000Z</time>
      </trkpt>
      <trkpt lat="42.99093" lon="1.95258">
        <ele>399.1</ele>
        <time>2014-02-15T09:49:15.000Z</time>
      </trkpt>
      <trkpt lat="42.99096" lon="1.95265">
        <ele>399.1</ele>
        <time>2014-02-15T09:49:18.000Z</time>
      </trkpt>
      <trkpt lat="42.99093" lon="1.95276">
        <ele>398.1</ele>
        <time>2014-02-15T09:49:22.000Z</time>
      </trkpt>
      <trkpt lat="42.99089" lon="1.95307">
        <ele>398.1</ele>
        <time>2014-02-15T09:49:30.000Z</time>
      </trkpt>
      <trkpt lat="42.99091" lon="1.95322">
        <ele>400.1</ele>
        <time>2014-02-15T09:49:35.000Z</time>
      </trkpt>
      <trkpt lat="42.99096" lon="1.95331">
        <ele>401.5</ele>
        <time>2014-02-15T09:49:40.000Z</time>
      </trkpt>
      <trkpt lat="42.99091" lon="1.95359">
        <ele>400.1</ele>
        <time>2014-02-15T09:49:49.000Z</time>
      </trkpt>
      <trkpt lat="42.99091" lon="1.95366">
        <ele>400.1</ele>
        <time>2014-02-15T09:50:00.000Z</time>
      </trkpt>
      <trkpt lat="42.99091" lon="1.95366">
        <ele>400.5</ele>
        <time>2014-02-15T09:51:11.000Z</time>
      </trkpt>
      <trkpt lat="42.99091" lon="1.95366">
        <ele>401</ele>
        <time>2014-02-15T09:51:23.000Z</time>
      </trkpt>
      <trkpt lat="42.99091" lon="1.95368">
        <ele>399.6</ele>
        <time>2014-02-15T09:52:53.000Z</time>
      </trkpt>
      <trkpt lat="42.99089" lon="1.95373">
        <ele>400.1</ele>
        <time>2014-02-15T09:53:46.000Z</time>
      </trkpt>
      <trkpt lat="42.99085" lon="1.9539">
        <ele>399.1</ele>
        <time>2014-02-15T09:53:54.000Z</time>
      </trkpt>
      <trkpt lat="42.99085" lon="1.95416">
        <ele>399.6</ele>
        <time>2014-02-15T09:54:05.000Z</time>
      </trkpt>
      <trkpt lat="42.99084" lon="1.95421">
        <ele>400.5</ele>
        <time>2014-02-15T09:54:07.000Z</time>
      </trkpt>
      <trkpt lat="42.99081" lon="1.95437">
        <ele>401.5</ele>
        <time>2014-02-15T09:54:13.000Z</time>
      </trkpt>
      <trkpt lat="42.99082" lon="1.95443">
        <ele>400.1</ele>
        <time>2014-02-15T09:54:16.000Z</time>
      </trkpt>
      <trkpt lat="42.99083" lon="1.95444">
        <ele>401.5</ele>
        <time>2014-02-15T09:54:17.000Z</time>
      </trkpt>
      <trkpt lat="42.99082" lon="1.95446">
        <ele>401</ele>
        <time>2014-02-15T09:54:18.000Z</time>
      </trkpt>
      <trkpt lat="42.99079" lon="1.95457">
        <ele>400.5</ele>
        <time>2014-02-15T09:54:22.000Z</time>
      </trkpt>
      <trkpt lat="42.99068" lon="1.95469">
        <ele>400.1</ele>
        <time>2014-02-15T09:54:27.000Z</time>
      </trkpt>
      <trkpt lat="42.99054" lon="1.95487">
        <ele>399.6</ele>
        <time>2014-02-15T09:54:34.000Z</time>
      </trkpt>
      <trkpt lat="42.99047" lon="1.95507">
        <ele>399.1</ele>
        <time>2014-02-15T09:54:40.000Z</time>
      </trkpt>
      <trkpt lat="42.99052" lon="1.95516">
        <ele>399.1</ele>
        <time>2014-02-15T09:54:43.000Z</time>
      </trkpt>
      <trkpt lat="42.99071" lon="1.95522">
        <ele>400.1</ele>
        <time>2014-02-15T09:54:53.000Z</time>
      </trkpt>
      <trkpt lat="42.99079" lon="1.9552">
        <ele>400.5</ele>
        <time>2014-02-15T09:54:57.000Z</time>
      </trkpt>
      <trkpt lat="42.99096" lon="1.95521">
        <ele>397.6</ele>
        <time>2014-02-15T09:55:06.000Z</time>
      </trkpt>
      <trkpt lat="42.99105" lon="1.95527">
        <ele>398.1</ele>
        <time>2014-02-15T09:55:10.000Z</time>
      </trkpt>
      <trkpt lat="42.99106" lon="1.95528">
        <ele>397.6</ele>
        <time>2014-02-15T09:55:11.000Z</time>
      </trkpt>
      <trkpt lat="42.99124" lon="1.95536">
        <ele>398.1</ele>
        <time>2014-02-15T09:55:20.000Z</time>
      </trkpt>
      <trkpt lat="42.99144" lon="1.95543">
        <ele>395.7</ele>
        <time>2014-02-15T09:55:28.000Z</time>
      </trkpt>
      <trkpt lat="42.99156" lon="1.95545">
        <ele>395.7</ele>
        <time>2014-02-15T09:55:34.000Z</time>
      </trkpt>
      <trkpt lat="42.99169" lon="1.95544">
        <ele>396.2</ele>
        <time>2014-02-15T09:55:44.000Z</time>
      </trkpt>
      <trkpt lat="42.99176" lon="1.95543">
        <ele>397.6</ele>
        <time>2014-02-15T09:55:56.000Z</time>
      </trkpt>
      <trkpt lat="42.99184" lon="1.9555">
        <ele>395.7</ele>
        <time>2014-02-15T09:56:03.000Z</time>
      </trkpt>
      <trkpt lat="42.99191" lon="1.95553">
        <ele>396.7</ele>
        <time>2014-02-15T09:56:08.000Z</time>
      </trkpt>
      <trkpt lat="42.99194" lon="1.95558">
        <ele>395.2</ele>
        <time>2014-02-15T09:56:11.000Z</time>
      </trkpt>
      <trkpt lat="42.99206" lon="1.95562">
        <ele>395.2</ele>
        <time>2014-02-15T09:56:21.000Z</time>
      </trkpt>
      <trkpt lat="42.99207" lon="1.95563">
        <ele>396.2</ele>
        <time>2014-02-15T09:56:22.000Z</time>
      </trkpt>
      <trkpt lat="42.99214" lon="1.95574">
        <ele>395.7</ele>
        <time>2014-02-15T09:56:33.000Z</time>
      </trkpt>
      <trkpt lat="42.99216" lon="1.95582">
        <ele>396.7</ele>
        <time>2014-02-15T09:56:38.000Z</time>
      </trkpt>
      <trkpt lat="42.99219" lon="1.95586">
        <ele>396.7</ele>
        <time>2014-02-15T09:56:41.000Z</time>
      </trkpt>
      <trkpt lat="42.99222" lon="1.95594">
        <ele>397.6</ele>
        <time>2014-02-15T09:56:51.000Z</time>
      </trkpt>
      <trkpt lat="42.99228" lon="1.95602">
        <ele>395.7</ele>
        <time>2014-02-15T09:56:58.000Z</time>
      </trkpt>
      <trkpt lat="42.99232" lon="1.95605">
        <ele>396.7</ele>
        <time>2014-02-15T09:57:01.000Z</time>
      </trkpt>
      <trkpt lat="42.99237" lon="1.95607">
        <ele>395.7</ele>
        <time>2014-02-15T09:57:10.000Z</time>
      </trkpt>
      <trkpt lat="42.99239" lon="1.95606">
        <ele>395.7</ele>
        <time>2014-02-15T09:57:12.000Z</time>
      </trkpt>
      <trkpt lat="42.99246" lon="1.95611">
        <ele>394.8</ele>
        <time>2014-02-15T09:57:23.000Z</time>
      </trkpt>
      <trkpt lat="42.99261" lon="1.95616">
        <ele>394.8</ele>
        <time>2014-02-15T09:57:29.000Z</time>
      </trkpt>
      <trkpt lat="42.99292" lon="1.95629">
        <ele>396.7</ele>
        <time>2014-02-15T09:57:37.000Z</time>
      </trkpt>
      <trkpt lat="42.9933" lon="1.95648">
        <ele>398.1</ele>
        <time>2014-02-15T09:57:49.000Z</time>
      </trkpt>
      <trkpt lat="42.99351" lon="1.9566">
        <ele>398.1</ele>
        <time>2014-02-15T09:57:55.000Z</time>
      </trkpt>
      <trkpt lat="42.99354" lon="1.95663">
        <ele>397.2</ele>
        <time>2014-02-15T09:57:56.000Z</time>
      </trkpt>
      <trkpt lat="42.99355" lon="1.95668">
        <ele>396.2</ele>
        <time>2014-02-15T09:57:57.000Z</time>
      </trkpt>
      <trkpt lat="42.99357" lon="1.95671">
        <ele>395.2</ele>
        <time>2014-02-15T09:57:58.000Z</time>
      </trkpt>
      <trkpt lat="42.99358" lon="1.95673">
        <ele>394.8</ele>
        <time>2014-02-15T09:57:59.000Z</time>
      </trkpt>
      <trkpt lat="42.99359" lon="1.9567">
        <ele>393.8</ele>
        <time>2014-02-15T09:58:07.000Z</time>
      </trkpt>
      <trkpt lat="42.99359" lon="1.95669">
        <ele>394.8</ele>
        <time>2014-02-15T09:58:23.000Z</time>
      </trkpt>
      <trkpt lat="42.99359" lon="1.95669">
        <ele>395.2</ele>
        <time>2014-02-15T09:58:42.000Z</time>
      </trkpt>
      <trkpt lat="42.99358" lon="1.95668">
        <ele>394.3</ele>
        <time>2014-02-15T09:58:50.000Z</time>
      </trkpt>
      <trkpt lat="42.99357" lon="1.95668">
        <ele>393.3</ele>
        <time>2014-02-15T09:58:51.000Z</time>
      </trkpt>
      <trkpt lat="42.99356" lon="1.9567">
        <ele>394.8</ele>
        <time>2014-02-15T09:58:55.000Z</time>
      </trkpt>
      <trkpt lat="42.99356" lon="1.95668">
        <ele>393.8</ele>
        <time>2014-02-15T09:58:59.000Z</time>
      </trkpt>
      <trkpt lat="42.99356" lon="1.95668">
        <ele>393.8</ele>
        <time>2014-02-15T09:59:00.000Z</time>
      </trkpt>
      <trkpt lat="42.99357" lon="1.95669">
        <ele>393.8</ele>
        <time>2014-02-15T09:59:01.000Z</time>
      </trkpt>
      <trkpt lat="42.99357" lon="1.95669">
        <ele>394.3</ele>
        <time>2014-02-15T09:59:11.000Z</time>
      </trkpt>
      <trkpt lat="42.99357" lon="1.9567">
        <ele>393.3</ele>
        <time>2014-02-15T09:59:32.000Z</time>
      </trkpt>
      <trkpt lat="42.99357" lon="1.9567">
        <ele>394.8</ele>
        <time>2014-02-15T09:59:59.000Z</time>
      </trkpt>
      <trkpt lat="42.99357" lon="1.9567">
        <ele>394.3</ele>
        <time>2014-02-15T10:00:03.000Z</time>
      </trkpt>
      <trkpt lat="42.99356" lon="1.95669">
        <ele>394.3</ele>
        <time>2014-02-15T10:00:18.000Z</time>
      </trkpt>
      <trkpt lat="42.99356" lon="1.95669">
        <ele>394.8</ele>
        <time>2014-02-15T10:00:35.000Z</time>
      </trkpt>
      <trkpt lat="42.99356" lon="1.95669">
        <ele>394.3</ele>
        <time>2014-02-15T10:00:36.000Z</time>
      </trkpt>
      <trkpt lat="42.99356" lon="1.95669">
        <ele>395.7</ele>
        <time>2014-02-15T10:00:37.000Z</time>
      </trkpt>
      <trkpt lat="42.99356" lon="1.95669">
        <ele>394.3</ele>
        <time>2014-02-15T10:00:39.000Z</time>
      </trkpt>
      <trkpt lat="42.99356" lon="1.95668">
        <ele>394.3</ele>
        <time>2014-02-15T10:00:40.000Z</time>
      </trkpt>
      <trkpt lat="42.99358" lon="1.95668">
        <ele>394.3</ele>
        <time>2014-02-15T10:00:42.000Z</time>
      </trkpt>
      <trkpt lat="42.9936" lon="1.95669">
        <ele>395.7</ele>
        <time>2014-02-15T10:00:49.000Z</time>
      </trkpt>
      <trkpt lat="42.99361" lon="1.9567">
        <ele>395.2</ele>
        <time>2014-02-15T10:01:23.000Z</time>
      </trkpt>
      <trkpt lat="42.99364" lon="1.95672">
        <ele>396.2</ele>
        <time>2014-02-15T10:01:44.000Z</time>
      </trkpt>
      <trkpt lat="42.99365" lon="1.95673">
        <ele>395.2</ele>
        <time>2014-02-15T10:01:45.000Z</time>
      </trkpt>
      <trkpt lat="42.99366" lon="1.95674">
        <ele>395.7</ele>
        <time>2014-02-15T10:01:46.000Z</time>
      </trkpt>
      <trkpt lat="42.99368" lon="1.95674">
        <ele>396.2</ele>
        <time>2014-02-15T10:01:47.000Z</time>
      </trkpt>
      <trkpt lat="42.9937" lon="1.95675">
        <ele>397.2</ele>
        <time>2014-02-15T10:01:48.000Z</time>
      </trkpt>
      <trkpt lat="42.99372" lon="1.95675">
        <ele>396.2</ele>
        <time>2014-02-15T10:01:49.000Z</time>
      </trkpt>
      <trkpt lat="42.99374" lon="1.95676">
        <ele>396.7</ele>
        <time>2014-02-15T10:01:50.000Z</time>
      </trkpt>
      <trkpt lat="42.99377" lon="1.95676">
        <ele>396.2</ele>
        <time>2014-02-15T10:01:51.000Z</time>
      </trkpt>
      <trkpt lat="42.99379" lon="1.95676">
        <ele>396.7</ele>
        <time>2014-02-15T10:01:52.000Z</time>
      </trkpt>
      <trkpt lat="42.99381" lon="1.95677">
        <ele>397.2</ele>
        <time>2014-02-15T10:01:53.000Z</time>
      </trkpt>
      <trkpt lat="42.99398" lon="1.9568">
        <ele>397.6</ele>
        <time>2014-02-15T10:02:03.000Z</time>
      </trkpt>
      <trkpt lat="42.99408" lon="1.95683">
        <ele>398.1</ele>
        <time>2014-02-15T10:02:08.000Z</time>
      </trkpt>
      <trkpt lat="42.9941" lon="1.95684">
        <ele>397.6</ele>
        <time>2014-02-15T10:02:09.000Z</time>
      </trkpt>
      <trkpt lat="42.99423" lon="1.95697">
        <ele>398.6</ele>
        <time>2014-02-15T10:02:16.000Z</time>
      </trkpt>
      <trkpt lat="42.99425" lon="1.95698">
        <ele>397.6</ele>
        <time>2014-02-15T10:02:17.000Z</time>
      </trkpt>
      <trkpt lat="42.99426" lon="1.95699">
        <ele>397.6</ele>
        <time>2014-02-15T10:02:18.000Z</time>
      </trkpt>
      <trkpt lat="42.99428" lon="1.957">
        <ele>398.6</ele>
        <time>2014-02-15T10:02:19.000Z</time>
      </trkpt>
      <trkpt lat="42.9943" lon="1.957">
        <ele>398.6</ele>
        <time>2014-02-15T10:02:20.000Z</time>
      </trkpt>
      <trkpt lat="42.99432" lon="1.95699">
        <ele>397.6</ele>
        <time>2014-02-15T10:02:21.000Z</time>
      </trkpt>
      <trkpt lat="42.99434" lon="1.95699">
        <ele>398.1</ele>
        <time>2014-02-15T10:02:22.000Z</time>
      </trkpt>
      <trkpt lat="42.99436" lon="1.95699">
        <ele>398.6</ele>
        <time>2014-02-15T10:02:23.000Z</time>
      </trkpt>
      <trkpt lat="42.99439" lon="1.957">
        <ele>397.2</ele>
        <time>2014-02-15T10:02:24.000Z</time>
      </trkpt>
      <trkpt lat="42.99441" lon="1.95702">
        <ele>398.1</ele>
        <time>2014-02-15T10:02:25.000Z</time>
      </trkpt>
      <trkpt lat="42.99443" lon="1.95704">
        <ele>398.6</ele>
        <time>2014-02-15T10:02:26.000Z</time>
      </trkpt>
      <trkpt lat="42.99445" lon="1.95705">
        <ele>397.6</ele>
        <time>2014-02-15T10:02:27.000Z</time>
      </trkpt>
      <trkpt lat="42.99448" lon="1.95706">
        <ele>398.1</ele>
        <time>2014-02-15T10:02:28.000Z</time>
      </trkpt>
      <trkpt lat="42.99451" lon="1.95707">
        <ele>397.6</ele>
        <time>2014-02-15T10:02:29.000Z</time>
      </trkpt>
      <trkpt lat="42.99455" lon="1.95707">
        <ele>397.6</ele>
        <time>2014-02-15T10:02:30.000Z</time>
      </trkpt>
      <trkpt lat="42.99459" lon="1.95707">
        <ele>397.2</ele>
        <time>2014-02-15T10:02:31.000Z</time>
      </trkpt>
      <trkpt lat="42.99473" lon="1.95705">
        <ele>396.2</ele>
        <time>2014-02-15T10:02:34.000Z</time>
      </trkpt>
      <trkpt lat="42.99479" lon="1.95706">
        <ele>395.7</ele>
        <time>2014-02-15T10:02:35.000Z</time>
      </trkpt>
      <trkpt lat="42.99521" lon="1.95713">
        <ele>393.3</ele>
        <time>2014-02-15T10:02:41.000Z</time>
      </trkpt>
      <trkpt lat="42.99551" lon="1.95728">
        <ele>390.4</ele>
        <time>2014-02-15T10:02:45.000Z</time>
      </trkpt>
      <trkpt lat="42.99574" lon="1.95741">
        <ele>390</ele>
        <time>2014-02-15T10:02:48.000Z</time>
      </trkpt>
      <trkpt lat="42.99612" lon="1.9577">
        <ele>388</ele>
        <time>2014-02-15T10:02:53.000Z</time>
      </trkpt>
      <trkpt lat="42.99619" lon="1.95778">
        <ele>386.1</ele>
        <time>2014-02-15T10:02:54.000Z</time>
      </trkpt>
      <trkpt lat="42.99665" lon="1.95835">
        <ele>382.7</ele>
        <time>2014-02-15T10:03:01.000Z</time>
      </trkpt>
      <trkpt lat="42.9969" lon="1.95871">
        <ele>380.3</ele>
        <time>2014-02-15T10:03:05.000Z</time>
      </trkpt>
      <trkpt lat="42.99694" lon="1.95883">
        <ele>378.9</ele>
        <time>2014-02-15T10:03:06.000Z</time>
      </trkpt>
      <trkpt lat="42.99698" lon="1.95895">
        <ele>378.9</ele>
        <time>2014-02-15T10:03:07.000Z</time>
      </trkpt>
      <trkpt lat="42.99702" lon="1.95908">
        <ele>378.4</ele>
        <time>2014-02-15T10:03:08.000Z</time>
      </trkpt>
      <trkpt lat="42.99707" lon="1.9592">
        <ele>375.5</ele>
        <time>2014-02-15T10:03:09.000Z</time>
      </trkpt>
      <trkpt lat="42.99713" lon="1.95931">
        <ele>375.5</ele>
        <time>2014-02-15T10:03:10.000Z</time>
      </trkpt>
      <trkpt lat="42.99734" lon="1.95962">
        <ele>373.6</ele>
        <time>2014-02-15T10:03:13.000Z</time>
      </trkpt>
      <trkpt lat="42.99742" lon="1.95972">
        <ele>372.7</ele>
        <time>2014-02-15T10:03:14.000Z</time>
      </trkpt>
      <trkpt lat="42.99751" lon="1.9598">
        <ele>372.7</ele>
        <time>2014-02-15T10:03:15.000Z</time>
      </trkpt>
      <trkpt lat="42.9976" lon="1.95986">
        <ele>372.2</ele>
        <time>2014-02-15T10:03:16.000Z</time>
      </trkpt>
      <trkpt lat="42.9977" lon="1.95991">
        <ele>370.7</ele>
        <time>2014-02-15T10:03:17.000Z</time>
      </trkpt>
      <trkpt lat="42.9978" lon="1.95995">
        <ele>369.8</ele>
        <time>2014-02-15T10:03:18.000Z</time>
      </trkpt>
      <trkpt lat="42.99791" lon="1.95996">
        <ele>368.8</ele>
        <time>2014-02-15T10:03:19.000Z</time>
      </trkpt>
      <trkpt lat="42.99803" lon="1.95997">
        <ele>368.3</ele>
        <time>2014-02-15T10:03:20.000Z</time>
      </trkpt>
      <trkpt lat="42.99814" lon="1.96">
        <ele>367.4</ele>
        <time>2014-02-15T10:03:21.000Z</time>
      </trkpt>
      <trkpt lat="42.99826" lon="1.96005">
        <ele>364.5</ele>
        <time>2014-02-15T10:03:22.000Z</time>
      </trkpt>
      <trkpt lat="42.99837" lon="1.9601">
        <ele>363.5</ele>
        <time>2014-02-15T10:03:23.000Z</time>
      </trkpt>
      <trkpt lat="42.99848" lon="1.96016">
        <ele>362.1</ele>
        <time>2014-02-15T10:03:24.000Z</time>
      </trkpt>
      <trkpt lat="42.9986" lon="1.96023">
        <ele>362.6</ele>
        <time>2014-02-15T10:03:25.000Z</time>
      </trkpt>
      <trkpt lat="42.99871" lon="1.96027">
        <ele>361.1</ele>
        <time>2014-02-15T10:03:26.000Z</time>
      </trkpt>
      <trkpt lat="42.99882" lon="1.96027">
        <ele>360.2</ele>
        <time>2014-02-15T10:03:27.000Z</time>
      </trkpt>
      <trkpt lat="42.99893" lon="1.96027">
        <ele>360.2</ele>
        <time>2014-02-15T10:03:28.000Z</time>
      </trkpt>
      <trkpt lat="42.99903" lon="1.96028">
        <ele>359.2</ele>
        <time>2014-02-15T10:03:29.000Z</time>
      </trkpt>
      <trkpt lat="42.99912" lon="1.9603">
        <ele>359.7</ele>
        <time>2014-02-15T10:03:30.000Z</time>
      </trkpt>
      <trkpt lat="42.99921" lon="1.96034">
        <ele>358.2</ele>
        <time>2014-02-15T10:03:31.000Z</time>
      </trkpt>
      <trkpt lat="42.9993" lon="1.9604">
        <ele>360.2</ele>
        <time>2014-02-15T10:03:32.000Z</time>
      </trkpt>
      <trkpt lat="42.99938" lon="1.96046">
        <ele>359.7</ele>
        <time>2014-02-15T10:03:33.000Z</time>
      </trkpt>
      <trkpt lat="42.99945" lon="1.96054">
        <ele>358.7</ele>
        <time>2014-02-15T10:03:34.000Z</time>
      </trkpt>
      <trkpt lat="42.99951" lon="1.96062">
        <ele>359.2</ele>
        <time>2014-02-15T10:03:35.000Z</time>
      </trkpt>
      <trkpt lat="42.99957" lon="1.9607">
        <ele>359.2</ele>
        <time>2014-02-15T10:03:36.000Z</time>
      </trkpt>
      <trkpt lat="42.99987" lon="1.96106">
        <ele>357.8</ele>
        <time>2014-02-15T10:03:41.000Z</time>
      </trkpt>
      <trkpt lat="43.00018" lon="1.96134">
        <ele>357.3</ele>
        <time>2014-02-15T10:03:46.000Z</time>
      </trkpt>
      <trkpt lat="43.00066" lon="1.96176">
        <ele>357.8</ele>
        <time>2014-02-15T10:03:55.000Z</time>
      </trkpt>
      <trkpt lat="43.00071" lon="1.96179">
        <ele>357.8</ele>
        <time>2014-02-15T10:03:56.000Z</time>
      </trkpt>
      <trkpt lat="43.00092" lon="1.96196">
        <ele>358.7</ele>
        <time>2014-02-15T10:04:01.000Z</time>
      </trkpt>
      <trkpt lat="43.00107" lon="1.9621">
        <ele>358.2</ele>
        <time>2014-02-15T10:04:05.000Z</time>
      </trkpt>
      <trkpt lat="43.00111" lon="1.96214">
        <ele>357.8</ele>
        <time>2014-02-15T10:04:06.000Z</time>
      </trkpt>
      <trkpt lat="43.00115" lon="1.96216">
        <ele>358.7</ele>
        <time>2014-02-15T10:04:07.000Z</time>
      </trkpt>
      <trkpt lat="43.00119" lon="1.96219">
        <ele>358.2</ele>
        <time>2014-02-15T10:04:08.000Z</time>
      </trkpt>
      <trkpt lat="43.00123" lon="1.96221">
        <ele>358.2</ele>
        <time>2014-02-15T10:04:09.000Z</time>
      </trkpt>
      <trkpt lat="43.00127" lon="1.96223">
        <ele>357.8</ele>
        <time>2014-02-15T10:04:10.000Z</time>
      </trkpt>
      <trkpt lat="43.00132" lon="1.96223">
        <ele>357.8</ele>
        <time>2014-02-15T10:04:11.000Z</time>
      </trkpt>
      <trkpt lat="43.00137" lon="1.96222">
        <ele>357.3</ele>
        <time>2014-02-15T10:04:12.000Z</time>
      </trkpt>
      <trkpt lat="43.00143" lon="1.96221">
        <ele>357.3</ele>
        <time>2014-02-15T10:04:13.000Z</time>
      </trkpt>
      <trkpt lat="43.00149" lon="1.96221">
        <ele>357.3</ele>
        <time>2014-02-15T10:04:14.000Z</time>
      </trkpt>
      <trkpt lat="43.00177" lon="1.96218">
        <ele>354.4</ele>
        <time>2014-02-15T10:04:18.000Z</time>
      </trkpt>
      <trkpt lat="43.00183" lon="1.96215">
        <ele>353.9</ele>
        <time>2014-02-15T10:04:19.000Z</time>
      </trkpt>
      <trkpt lat="43.00212" lon="1.96198">
        <ele>353.9</ele>
        <time>2014-02-15T10:04:24.000Z</time>
      </trkpt>
      <trkpt lat="43.00217" lon="1.96196">
        <ele>353.4</ele>
        <time>2014-02-15T10:04:25.000Z</time>
      </trkpt>
      <trkpt lat="43.00261" lon="1.96186">
        <ele>352.9</ele>
        <time>2014-02-15T10:04:33.000Z</time>
      </trkpt>
      <trkpt lat="43.00339" lon="1.9618">
        <ele>353.4</ele>
        <time>2014-02-15T10:04:47.000Z</time>
      </trkpt>
      <trkpt lat="43.00345" lon="1.9618">
        <ele>352</ele>
        <time>2014-02-15T10:04:49.000Z</time>
      </trkpt>
      <trkpt lat="43.00354" lon="1.9618">
        <ele>352</ele>
        <time>2014-02-15T10:04:53.000Z</time>
      </trkpt>
      <trkpt lat="43.00352" lon="1.96179">
        <ele>351.5</ele>
        <time>2014-02-15T10:04:56.000Z</time>
      </trkpt>
      <trkpt lat="43.00287" lon="1.96184">
        <ele>352.9</ele>
        <time>2014-02-15T10:07:45.000Z</time>
      </trkpt>
      <trkpt lat="43.00302" lon="1.96183">
        <ele>353.4</ele>
        <time>2014-02-15T10:07:48.000Z</time>
      </trkpt>
      <trkpt lat="43.00307" lon="1.96183">
        <ele>353.4</ele>
        <time>2014-02-15T10:07:49.000Z</time>
      </trkpt>
      <trkpt lat="43.00391" lon="1.96188">
        <ele>351.5</ele>
        <time>2014-02-15T10:08:05.000Z</time>
      </trkpt>
      <trkpt lat="43.00412" lon="1.96191">
        <ele>350.5</ele>
        <time>2014-02-15T10:08:08.000Z</time>
      </trkpt>
      <trkpt lat="43.00419" lon="1.96191">
        <ele>350.1</ele>
        <time>2014-02-15T10:08:09.000Z</time>
      </trkpt>
      <trkpt lat="43.00426" lon="1.96188">
        <ele>349.6</ele>
        <time>2014-02-15T10:08:10.000Z</time>
      </trkpt>
      <trkpt lat="43.00432" lon="1.96183">
        <ele>350.1</ele>
        <time>2014-02-15T10:08:11.000Z</time>
      </trkpt>
      <trkpt lat="43.00436" lon="1.96176">
        <ele>350.5</ele>
        <time>2014-02-15T10:08:12.000Z</time>
      </trkpt>
      <trkpt lat="43.00439" lon="1.96168">
        <ele>349.6</ele>
        <time>2014-02-15T10:08:13.000Z</time>
      </trkpt>
      <trkpt lat="43.00442" lon="1.96159">
        <ele>349.6</ele>
        <time>2014-02-15T10:08:14.000Z</time>
      </trkpt>
      <trkpt lat="43.00444" lon="1.96151">
        <ele>350.5</ele>
        <time>2014-02-15T10:08:15.000Z</time>
      </trkpt>
      <trkpt lat="43.00453" lon="1.9611">
        <ele>350.1</ele>
        <time>2014-02-15T10:08:20.000Z</time>
      </trkpt>
      <trkpt lat="43.00453" lon="1.96102">
        <ele>350.1</ele>
        <time>2014-02-15T10:08:21.000Z</time>
      </trkpt>
      <trkpt lat="43.00453" lon="1.96094">
        <ele>351</ele>
        <time>2014-02-15T10:08:22.000Z</time>
      </trkpt>
      <trkpt lat="43.00452" lon="1.96087">
        <ele>350.1</ele>
        <time>2014-02-15T10:08:23.000Z</time>
      </trkpt>
      <trkpt lat="43.00451" lon="1.9608">
        <ele>350.5</ele>
        <time>2014-02-15T10:08:24.000Z</time>
      </trkpt>
      <trkpt lat="43.0045" lon="1.96073">
        <ele>351.5</ele>
        <time>2014-02-15T10:08:25.000Z</time>
      </trkpt>
      <trkpt lat="43.0045" lon="1.96066">
        <ele>351</ele>
        <time>2014-02-15T10:08:26.000Z</time>
      </trkpt>
      <trkpt lat="43.00451" lon="1.9606">
        <ele>351.5</ele>
        <time>2014-02-15T10:08:27.000Z</time>
      </trkpt>
      <trkpt lat="43.00452" lon="1.96054">
        <ele>351.5</ele>
        <time>2014-02-15T10:08:28.000Z</time>
      </trkpt>
      <trkpt lat="43.00455" lon="1.96049">
        <ele>352.5</ele>
        <time>2014-02-15T10:08:29.000Z</time>
      </trkpt>
      <trkpt lat="43.00458" lon="1.96045">
        <ele>352.5</ele>
        <time>2014-02-15T10:08:30.000Z</time>
      </trkpt>
      <trkpt lat="43.00463" lon="1.96043">
        <ele>352.5</ele>
        <time>2014-02-15T10:08:31.000Z</time>
      </trkpt>
      <trkpt lat="43.00467" lon="1.96044">
        <ele>351.5</ele>
        <time>2014-02-15T10:08:32.000Z</time>
      </trkpt>
      <trkpt lat="43.00471" lon="1.96047">
        <ele>352</ele>
        <time>2014-02-15T10:08:33.000Z</time>
      </trkpt>
      <trkpt lat="43.00474" lon="1.96052">
        <ele>352.5</ele>
        <time>2014-02-15T10:08:34.000Z</time>
      </trkpt>
      <trkpt lat="43.00476" lon="1.96057">
        <ele>352</ele>
        <time>2014-02-15T10:08:35.000Z</time>
      </trkpt>
      <trkpt lat="43.00478" lon="1.96063">
        <ele>352.5</ele>
        <time>2014-02-15T10:08:36.000Z</time>
      </trkpt>
      <trkpt lat="43.0048" lon="1.96068">
        <ele>352.5</ele>
        <time>2014-02-15T10:08:37.000Z</time>
      </trkpt>
      <trkpt lat="43.00482" lon="1.96074">
        <ele>351.5</ele>
        <time>2014-02-15T10:08:38.000Z</time>
      </trkpt>
      <trkpt lat="43.00486" lon="1.96091">
        <ele>352</ele>
        <time>2014-02-15T10:08:41.000Z</time>
      </trkpt>
      <trkpt lat="43.00515" lon="1.96167">
        <ele>352.9</ele>
        <time>2014-02-15T10:08:55.000Z</time>
      </trkpt>
      <trkpt lat="43.00554" lon="1.96225">
        <ele>353.9</ele>
        <time>2014-02-15T10:09:08.000Z</time>
      </trkpt>
      <trkpt lat="43.00557" lon="1.96228">
        <ele>353.9</ele>
        <time>2014-02-15T10:09:09.000Z</time>
      </trkpt>
      <trkpt lat="43.00565" lon="1.96232">
        <ele>352.9</ele>
        <time>2014-02-15T10:09:11.000Z</time>
      </trkpt>
      <trkpt lat="43.00619" lon="1.96272">
        <ele>353.4</ele>
        <time>2014-02-15T10:09:24.000Z</time>
      </trkpt>
      <trkpt lat="43.00675" lon="1.9635">
        <ele>351</ele>
        <time>2014-02-15T10:09:38.000Z</time>
      </trkpt>
      <trkpt lat="43.00683" lon="1.96363">
        <ele>350.1</ele>
        <time>2014-02-15T10:09:40.000Z</time>
      </trkpt>
      <trkpt lat="43.00744" lon="1.9642">
        <ele>349.1</ele>
        <time>2014-02-15T10:09:52.000Z</time>
      </trkpt>
      <trkpt lat="43.00789" lon="1.96456">
        <ele>348.1</ele>
        <time>2014-02-15T10:10:00.000Z</time>
      </trkpt>
      <trkpt lat="43.008" lon="1.96464">
        <ele>346.7</ele>
        <time>2014-02-15T10:10:02.000Z</time>
      </trkpt>
      <trkpt lat="43.00806" lon="1.96467">
        <ele>347.7</ele>
        <time>2014-02-15T10:10:03.000Z</time>
      </trkpt>
      <trkpt lat="43.00812" lon="1.96469">
        <ele>346.7</ele>
        <time>2014-02-15T10:10:04.000Z</time>
      </trkpt>
      <trkpt lat="43.00818" lon="1.96471">
        <ele>346.7</ele>
        <time>2014-02-15T10:10:05.000Z</time>
      </trkpt>
      <trkpt lat="43.00824" lon="1.96472">
        <ele>347.7</ele>
        <time>2014-02-15T10:10:06.000Z</time>
      </trkpt>
      <trkpt lat="43.0083" lon="1.96473">
        <ele>346.2</ele>
        <time>2014-02-15T10:10:07.000Z</time>
      </trkpt>
      <trkpt lat="43.00862" lon="1.96474">
        <ele>346.2</ele>
        <time>2014-02-15T10:10:12.000Z</time>
      </trkpt>
      <trkpt lat="43.00868" lon="1.96474">
        <ele>346.2</ele>
        <time>2014-02-15T10:10:13.000Z</time>
      </trkpt>
      <trkpt lat="43.00892" lon="1.96476">
        <ele>347.2</ele>
        <time>2014-02-15T10:10:17.000Z</time>
      </trkpt>
      <trkpt lat="43.00903" lon="1.96468">
        <ele>346.7</ele>
        <time>2014-02-15T10:10:25.000Z</time>
      </trkpt>
      <trkpt lat="43.00909" lon="1.96455">
        <ele>346.2</ele>
        <time>2014-02-15T10:10:26.000Z</time>
      </trkpt>
      <trkpt lat="43.00916" lon="1.96445">
        <ele>346.2</ele>
        <time>2014-02-15T10:10:39.000Z</time>
      </trkpt>
      <trkpt lat="43.00933" lon="1.96423">
        <ele>345.7</ele>
        <time>2014-02-15T10:11:10.000Z</time>
      </trkpt>
      <trkpt lat="43.00951" lon="1.9641">
        <ele>345.7</ele>
        <time>2014-02-15T10:11:11.000Z</time>
      </trkpt>
      <trkpt lat="43.00961" lon="1.96403">
        <ele>346.7</ele>
        <time>2014-02-15T10:11:12.000Z</time>
      </trkpt>
      <trkpt lat="43.00985" lon="1.96383">
        <ele>345.3</ele>
        <time>2014-02-15T10:11:20.000Z</time>
      </trkpt>
      <trkpt lat="43.01005" lon="1.96369">
        <ele>345.3</ele>
        <time>2014-02-15T10:11:52.000Z</time>
      </trkpt>
      <trkpt lat="43.0103" lon="1.96352">
        <ele>346.2</ele>
        <time>2014-02-15T10:12:09.000Z</time>
      </trkpt>
      <trkpt lat="43.0105" lon="1.96339">
        <ele>345.7</ele>
        <time>2014-02-15T10:12:13.000Z</time>
      </trkpt>
      <trkpt lat="43.01064" lon="1.96331">
        <ele>343.8</ele>
        <time>2014-02-15T10:12:24.000Z</time>
      </trkpt>
      <trkpt lat="43.01197" lon="1.96248">
        <ele>344.8</ele>
        <time>2014-02-15T10:12:36.000Z</time>
      </trkpt>
      <trkpt lat="43.01206" lon="1.96242">
        <ele>343.8</ele>
        <time>2014-02-15T10:12:38.000Z</time>
      </trkpt>
      <trkpt lat="43.01221" lon="1.96233">
        <ele>344.3</ele>
        <time>2014-02-15T10:13:02.000Z</time>
      </trkpt>
      <trkpt lat="43.0124" lon="1.96227">
        <ele>344.3</ele>
        <time>2014-02-15T10:13:14.000Z</time>
      </trkpt>
      <trkpt lat="43.01277" lon="1.96213">
        <ele>343.8</ele>
        <time>2014-02-15T10:13:23.000Z</time>
      </trkpt>
      <trkpt lat="43.01287" lon="1.9621">
        <ele>343.8</ele>
        <time>2014-02-15T10:13:25.000Z</time>
      </trkpt>
      <trkpt lat="43.01293" lon="1.96207">
        <ele>344.3</ele>
        <time>2014-02-15T10:13:26.000Z</time>
      </trkpt>
      <trkpt lat="43.01303" lon="1.96202">
        <ele>344.3</ele>
        <time>2014-02-15T10:13:28.000Z</time>
      </trkpt>
      <trkpt lat="43.01341" lon="1.96193">
        <ele>344.3</ele>
        <time>2014-02-15T10:13:37.000Z</time>
      </trkpt>
      <trkpt lat="43.014" lon="1.96175">
        <ele>344.8</ele>
        <time>2014-02-15T10:13:49.000Z</time>
      </trkpt>
      <trkpt lat="43.0141" lon="1.96173">
        <ele>345.3</ele>
        <time>2014-02-15T10:13:51.000Z</time>
      </trkpt>
      <trkpt lat="43.01488" lon="1.96155">
        <ele>344.3</ele>
        <time>2014-02-15T10:14:05.000Z</time>
      </trkpt>
      <trkpt lat="43.01531" lon="1.96153">
        <ele>343.8</ele>
        <time>2014-02-15T10:14:14.000Z</time>
      </trkpt>
      <trkpt lat="43.01567" lon="1.96159">
        <ele>343.3</ele>
        <time>2014-02-15T10:14:24.000Z</time>
      </trkpt>
      <trkpt lat="43.01645" lon="1.96186">
        <ele>344.3</ele>
        <time>2014-02-15T10:14:41.000Z</time>
      </trkpt>
      <trkpt lat="43.01694" lon="1.96206">
        <ele>343.8</ele>
        <time>2014-02-15T10:14:52.000Z</time>
      </trkpt>
      <trkpt lat="43.01699" lon="1.96208">
        <ele>343.8</ele>
        <time>2014-02-15T10:14:53.000Z</time>
      </trkpt>
      <trkpt lat="43.01721" lon="1.96218">
        <ele>344.8</ele>
        <time>2014-02-15T10:14:58.000Z</time>
      </trkpt>
      <trkpt lat="43.01726" lon="1.96219">
        <ele>343.8</ele>
        <time>2014-02-15T10:14:59.000Z</time>
      </trkpt>
      <trkpt lat="43.01753" lon="1.96232">
        <ele>344.3</ele>
        <time>2014-02-15T10:15:10.000Z</time>
      </trkpt>
      <trkpt lat="43.01755" lon="1.96233">
        <ele>344.8</ele>
        <time>2014-02-15T10:15:12.000Z</time>
      </trkpt>
      <trkpt lat="43.01756" lon="1.96233">
        <ele>343.8</ele>
        <time>2014-02-15T10:15:13.000Z</time>
      </trkpt>
      <trkpt lat="43.01757" lon="1.96233">
        <ele>343.8</ele>
        <time>2014-02-15T10:15:14.000Z</time>
      </trkpt>
      <trkpt lat="43.01763" lon="1.96235">
        <ele>343.3</ele>
        <time>2014-02-15T10:15:26.000Z</time>
      </trkpt>
      <trkpt lat="43.01763" lon="1.96235">
        <ele>343.3</ele>
        <time>2014-02-15T10:15:27.000Z</time>
      </trkpt>
      <trkpt lat="43.01763" lon="1.96235">
        <ele>344.8</ele>
        <time>2014-02-15T10:15:43.000Z</time>
      </trkpt>
      <trkpt lat="43.01775" lon="1.96242">
        <ele>344.3</ele>
        <time>2014-02-15T10:16:02.000Z</time>
      </trkpt>
      <trkpt lat="43.01804" lon="1.96255">
        <ele>344.3</ele>
        <time>2014-02-15T10:16:14.000Z</time>
      </trkpt>
      <trkpt lat="43.01843" lon="1.96276">
        <ele>343.8</ele>
        <time>2014-02-15T10:16:29.000Z</time>
      </trkpt>
      <trkpt lat="43.01855" lon="1.9629">
        <ele>343.8</ele>
        <time>2014-02-15T10:16:41.000Z</time>
      </trkpt>
      <trkpt lat="43.01857" lon="1.96291">
        <ele>344.8</ele>
        <time>2014-02-15T10:17:26.000Z</time>
      </trkpt>
      <trkpt lat="43.01863" lon="1.96293">
        <ele>344.3</ele>
        <time>2014-02-15T10:17:36.000Z</time>
      </trkpt>
      <trkpt lat="43.01883" lon="1.96301">
        <ele>344.3</ele>
        <time>2014-02-15T10:17:47.000Z</time>
      </trkpt>
      <trkpt lat="43.01919" lon="1.96319">
        <ele>344.3</ele>
        <time>2014-02-15T10:17:58.000Z</time>
      </trkpt>
      <trkpt lat="43.01923" lon="1.96321">
        <ele>345.3</ele>
        <time>2014-02-15T10:17:59.000Z</time>
      </trkpt>
      <trkpt lat="43.01956" lon="1.96336">
        <ele>344.3</ele>
        <time>2014-02-15T10:18:07.000Z</time>
      </trkpt>
      <trkpt lat="43.0196" lon="1.96338">
        <ele>343.8</ele>
        <time>2014-02-15T10:18:08.000Z</time>
      </trkpt>
      <trkpt lat="43.02014" lon="1.9636">
        <ele>344.3</ele>
        <time>2014-02-15T10:18:21.000Z</time>
      </trkpt>
      <trkpt lat="43.02031" lon="1.96367">
        <ele>344.8</ele>
        <time>2014-02-15T10:18:26.000Z</time>
      </trkpt>
      <trkpt lat="43.02034" lon="1.9637">
        <ele>344.3</ele>
        <time>2014-02-15T10:18:27.000Z</time>
      </trkpt>
      <trkpt lat="43.02037" lon="1.96372">
        <ele>344.8</ele>
        <time>2014-02-15T10:18:28.000Z</time>
      </trkpt>
      <trkpt lat="43.0204" lon="1.96373">
        <ele>345.3</ele>
        <time>2014-02-15T10:18:29.000Z</time>
      </trkpt>
      <trkpt lat="43.02044" lon="1.96375">
        <ele>344.8</ele>
        <time>2014-02-15T10:18:30.000Z</time>
      </trkpt>
      <trkpt lat="43.02047" lon="1.96377">
        <ele>344.8</ele>
        <time>2014-02-15T10:18:31.000Z</time>
      </trkpt>
      <trkpt lat="43.02054" lon="1.9638">
        <ele>344.8</ele>
        <time>2014-02-15T10:18:34.000Z</time>
      </trkpt>
      <trkpt lat="43.02054" lon="1.96382">
        <ele>345.3</ele>
        <time>2014-02-15T10:18:35.000Z</time>
      </trkpt>
      <trkpt lat="43.02055" lon="1.96383">
        <ele>345.3</ele>
        <time>2014-02-15T10:18:36.000Z</time>
      </trkpt>
      <trkpt lat="43.02056" lon="1.96384">
        <ele>345.3</ele>
        <time>2014-02-15T10:18:52.000Z</time>
      </trkpt>
      <trkpt lat="43.02058" lon="1.96384">
        <ele>344.8</ele>
        <time>2014-02-15T10:18:56.000Z</time>
      </trkpt>
      <trkpt lat="43.02095" lon="1.96395">
        <ele>344.3</ele>
        <time>2014-02-15T10:19:09.000Z</time>
      </trkpt>
      <trkpt lat="43.02101" lon="1.96397">
        <ele>345.3</ele>
        <time>2014-02-15T10:19:11.000Z</time>
      </trkpt>
      <trkpt lat="43.02103" lon="1.96397">
        <ele>343.8</ele>
        <time>2014-02-15T10:19:12.000Z</time>
      </trkpt>
      <trkpt lat="43.02105" lon="1.96397">
        <ele>345.3</ele>
        <time>2014-02-15T10:19:13.000Z</time>
      </trkpt>
      <trkpt lat="43.02107" lon="1.96397">
        <ele>345.7</ele>
        <time>2014-02-15T10:19:14.000Z</time>
      </trkpt>
      <trkpt lat="43.0211" lon="1.96396">
        <ele>345.3</ele>
        <time>2014-02-15T10:19:15.000Z</time>
      </trkpt>
      <trkpt lat="43.02112" lon="1.96396">
        <ele>344.8</ele>
        <time>2014-02-15T10:19:16.000Z</time>
      </trkpt>
      <trkpt lat="43.02115" lon="1.96396">
        <ele>345.3</ele>
        <time>2014-02-15T10:19:17.000Z</time>
      </trkpt>
      <trkpt lat="43.02116" lon="1.96396">
        <ele>345.3</ele>
        <time>2014-02-15T10:19:18.000Z</time>
      </trkpt>
      <trkpt lat="43.02118" lon="1.96396">
        <ele>345.7</ele>
        <time>2014-02-15T10:19:19.000Z</time>
      </trkpt>
      <trkpt lat="43.02121" lon="1.96396">
        <ele>344.8</ele>
        <time>2014-02-15T10:19:20.000Z</time>
      </trkpt>
      <trkpt lat="43.02162" lon="1.96401">
        <ele>345.3</ele>
        <time>2014-02-15T10:19:34.000Z</time>
      </trkpt>
      <trkpt lat="43.02164" lon="1.96403">
        <ele>345.3</ele>
        <time>2014-02-15T10:19:35.000Z</time>
      </trkpt>
      <trkpt lat="43.02165" lon="1.96406">
        <ele>345.3</ele>
        <time>2014-02-15T10:19:36.000Z</time>
      </trkpt>
      <trkpt lat="43.02166" lon="1.96408">
        <ele>345.3</ele>
        <time>2014-02-15T10:19:37.000Z</time>
      </trkpt>
      <trkpt lat="43.02166" lon="1.9641">
        <ele>345.3</ele>
        <time>2014-02-15T10:19:38.000Z</time>
      </trkpt>
      <trkpt lat="43.02167" lon="1.96412">
        <ele>346.2</ele>
        <time>2014-02-15T10:19:39.000Z</time>
      </trkpt>
      <trkpt lat="43.02168" lon="1.96426">
        <ele>344.3</ele>
        <time>2014-02-15T10:19:45.000Z</time>
      </trkpt>
      <trkpt lat="43.02164" lon="1.96457">
        <ele>340.9</ele>
        <time>2014-02-15T10:19:54.000Z</time>
      </trkpt>
      <trkpt lat="43.02164" lon="1.96465">
        <ele>340.4</ele>
        <time>2014-02-15T10:19:56.000Z</time>
      </trkpt>
      <trkpt lat="43.02165" lon="1.96469">
        <ele>340.9</ele>
        <time>2014-02-15T10:19:57.000Z</time>
      </trkpt>
      <trkpt lat="43.02169" lon="1.96477">
        <ele>340.4</ele>
        <time>2014-02-15T10:20:00.000Z</time>
      </trkpt>
      <trkpt lat="43.02169" lon="1.9648">
        <ele>340</ele>
        <time>2014-02-15T10:20:01.000Z</time>
      </trkpt>
      <trkpt lat="43.02168" lon="1.96483">
        <ele>340.9</ele>
        <time>2014-02-15T10:20:02.000Z</time>
      </trkpt>
      <trkpt lat="43.02168" lon="1.96486">
        <ele>340.9</ele>
        <time>2014-02-15T10:20:03.000Z</time>
      </trkpt>
      <trkpt lat="43.02167" lon="1.96489">
        <ele>340.4</ele>
        <time>2014-02-15T10:20:04.000Z</time>
      </trkpt>
      <trkpt lat="43.02166" lon="1.96492">
        <ele>340.4</ele>
        <time>2014-02-15T10:20:05.000Z</time>
      </trkpt>
      <trkpt lat="43.02165" lon="1.96495">
        <ele>340</ele>
        <time>2014-02-15T10:20:06.000Z</time>
      </trkpt>
      <trkpt lat="43.02165" lon="1.96498">
        <ele>340.4</ele>
        <time>2014-02-15T10:20:07.000Z</time>
      </trkpt>
      <trkpt lat="43.02165" lon="1.96501">
        <ele>340</ele>
        <time>2014-02-15T10:20:08.000Z</time>
      </trkpt>
      <trkpt lat="43.02159" lon="1.96527">
        <ele>341.4</ele>
        <time>2014-02-15T10:20:18.000Z</time>
      </trkpt>
      <trkpt lat="43.0216" lon="1.96524">
        <ele>340.9</ele>
        <time>2014-02-15T10:20:27.000Z</time>
      </trkpt>
      <trkpt lat="43.02159" lon="1.96526">
        <ele>340.9</ele>
        <time>2014-02-15T10:20:28.000Z</time>
      </trkpt>
      <trkpt lat="43.02159" lon="1.96528">
        <ele>340.9</ele>
        <time>2014-02-15T10:20:29.000Z</time>
      </trkpt>
      <trkpt lat="43.02158" lon="1.96529">
        <ele>341.9</ele>
        <time>2014-02-15T10:20:30.000Z</time>
      </trkpt>
      <trkpt lat="43.02158" lon="1.96532">
        <ele>342.4</ele>
        <time>2014-02-15T10:20:31.000Z</time>
      </trkpt>
      <trkpt lat="43.02157" lon="1.96535">
        <ele>341.9</ele>
        <time>2014-02-15T10:20:32.000Z</time>
      </trkpt>
      <trkpt lat="43.02156" lon="1.96538">
        <ele>341.9</ele>
        <time>2014-02-15T10:20:33.000Z</time>
      </trkpt>
      <trkpt lat="43.02155" lon="1.96541">
        <ele>342.4</ele>
        <time>2014-02-15T10:20:34.000Z</time>
      </trkpt>
      <trkpt lat="43.02154" lon="1.96544">
        <ele>342.4</ele>
        <time>2014-02-15T10:20:35.000Z</time>
      </trkpt>
      <trkpt lat="43.02154" lon="1.96548">
        <ele>341.4</ele>
        <time>2014-02-15T10:20:36.000Z</time>
      </trkpt>
      <trkpt lat="43.02153" lon="1.96551">
        <ele>341.4</ele>
        <time>2014-02-15T10:20:37.000Z</time>
      </trkpt>
      <trkpt lat="43.02153" lon="1.96554">
        <ele>341.9</ele>
        <time>2014-02-15T10:20:38.000Z</time>
      </trkpt>
      <trkpt lat="43.02153" lon="1.96557">
        <ele>341.9</ele>
        <time>2014-02-15T10:20:39.000Z</time>
      </trkpt>
      <trkpt lat="43.02152" lon="1.9656">
        <ele>342.4</ele>
        <time>2014-02-15T10:20:41.000Z</time>
      </trkpt>
      <trkpt lat="43.02152" lon="1.96561">
        <ele>342.9</ele>
        <time>2014-02-15T10:20:42.000Z</time>
      </trkpt>
      <trkpt lat="43.02152" lon="1.96562">
        <ele>341.4</ele>
        <time>2014-02-15T10:20:44.000Z</time>
      </trkpt>
      <trkpt lat="43.02152" lon="1.9656">
        <ele>342.4</ele>
        <time>2014-02-15T10:20:45.000Z</time>
      </trkpt>
      <trkpt lat="43.02153" lon="1.96558">
        <ele>342.4</ele>
        <time>2014-02-15T10:20:46.000Z</time>
      </trkpt>
      <trkpt lat="43.02152" lon="1.96556">
        <ele>341.9</ele>
        <time>2014-02-15T10:20:47.000Z</time>
      </trkpt>
      <trkpt lat="43.02151" lon="1.96556">
        <ele>342.9</ele>
        <time>2014-02-15T10:20:48.000Z</time>
      </trkpt>
      <trkpt lat="43.0215" lon="1.96558">
        <ele>341.9</ele>
        <time>2014-02-15T10:20:49.000Z</time>
      </trkpt>
      <trkpt lat="43.0215" lon="1.96561">
        <ele>341.4</ele>
        <time>2014-02-15T10:20:50.000Z</time>
      </trkpt>
      <trkpt lat="43.02151" lon="1.96563">
        <ele>341.9</ele>
        <time>2014-02-15T10:20:51.000Z</time>
      </trkpt>
      <trkpt lat="43.02153" lon="1.96565">
        <ele>343.3</ele>
        <time>2014-02-15T10:20:52.000Z</time>
      </trkpt>
      <trkpt lat="43.02153" lon="1.96568">
        <ele>342.4</ele>
        <time>2014-02-15T10:20:53.000Z</time>
      </trkpt>
      <trkpt lat="43.02152" lon="1.96571">
        <ele>342.4</ele>
        <time>2014-02-15T10:20:54.000Z</time>
      </trkpt>
      <trkpt lat="43.02152" lon="1.96575">
        <ele>342.4</ele>
        <time>2014-02-15T10:20:55.000Z</time>
      </trkpt>
      <trkpt lat="43.02152" lon="1.96578">
        <ele>340.9</ele>
        <time>2014-02-15T10:20:56.000Z</time>
      </trkpt>
      <trkpt lat="43.02152" lon="1.96586">
        <ele>342.4</ele>
        <time>2014-02-15T10:21:00.000Z</time>
      </trkpt>
      <trkpt lat="43.02152" lon="1.96586">
        <ele>342.4</ele>
        <time>2014-02-15T10:21:20.000Z</time>
      </trkpt>
      <trkpt lat="43.02153" lon="1.96586">
        <ele>341.9</ele>
        <time>2014-02-15T10:21:32.000Z</time>
      </trkpt>
      <trkpt lat="43.02153" lon="1.96588">
        <ele>342.9</ele>
        <time>2014-02-15T10:21:33.000Z</time>
      </trkpt>
      <trkpt lat="43.02153" lon="1.9659">
        <ele>341.9</ele>
        <time>2014-02-15T10:21:34.000Z</time>
      </trkpt>
      <trkpt lat="43.02153" lon="1.96593">
        <ele>342.4</ele>
        <time>2014-02-15T10:21:35.000Z</time>
      </trkpt>
      <trkpt lat="43.02153" lon="1.96596">
        <ele>342.4</ele>
        <time>2014-02-15T10:21:36.000Z</time>
      </trkpt>
      <trkpt lat="43.02153" lon="1.96599">
        <ele>342.9</ele>
        <time>2014-02-15T10:21:37.000Z</time>
      </trkpt>
      <trkpt lat="43.02153" lon="1.96603">
        <ele>342.9</ele>
        <time>2014-02-15T10:21:38.000Z</time>
      </trkpt>
      <trkpt lat="43.02153" lon="1.96658">
        <ele>340.9</ele>
        <time>2014-02-15T10:21:53.000Z</time>
      </trkpt>
      <trkpt lat="43.02152" lon="1.9666">
        <ele>340.9</ele>
        <time>2014-02-15T10:21:54.000Z</time>
      </trkpt>
      <trkpt lat="43.02152" lon="1.96662">
        <ele>341.4</ele>
        <time>2014-02-15T10:21:55.000Z</time>
      </trkpt>
      <trkpt lat="43.02152" lon="1.96664">
        <ele>341.4</ele>
        <time>2014-02-15T10:21:56.000Z</time>
      </trkpt>
      <trkpt lat="43.02152" lon="1.96666">
        <ele>341.4</ele>
        <time>2014-02-15T10:21:57.000Z</time>
      </trkpt>
      <trkpt lat="43.02151" lon="1.96667">
        <ele>339.5</ele>
        <time>2014-02-15T10:22:32.000Z</time>
      </trkpt>
      <trkpt lat="43.0215" lon="1.96667">
        <ele>340.4</ele>
        <time>2014-02-15T10:22:33.000Z</time>
      </trkpt>
      <trkpt lat="43.02149" lon="1.96668">
        <ele>340.9</ele>
        <time>2014-02-15T10:22:34.000Z</time>
      </trkpt>
      <trkpt lat="43.02149" lon="1.9667">
        <ele>340.4</ele>
        <time>2014-02-15T10:22:35.000Z</time>
      </trkpt>
      <trkpt lat="43.02149" lon="1.96672">
        <ele>340.4</ele>
        <time>2014-02-15T10:22:36.000Z</time>
      </trkpt>
      <trkpt lat="43.02149" lon="1.96674">
        <ele>340.9</ele>
        <time>2014-02-15T10:22:37.000Z</time>
      </trkpt>
      <trkpt lat="43.02148" lon="1.96676">
        <ele>340.9</ele>
        <time>2014-02-15T10:22:38.000Z</time>
      </trkpt>
      <trkpt lat="43.02148" lon="1.96678">
        <ele>340.4</ele>
        <time>2014-02-15T10:22:39.000Z</time>
      </trkpt>
      <trkpt lat="43.02147" lon="1.9668">
        <ele>339.5</ele>
        <time>2014-02-15T10:22:40.000Z</time>
      </trkpt>
      <trkpt lat="43.02146" lon="1.96682">
        <ele>340.4</ele>
        <time>2014-02-15T10:22:41.000Z</time>
      </trkpt>
      <trkpt lat="43.02145" lon="1.96683">
        <ele>340.4</ele>
        <time>2014-02-15T10:22:42.000Z</time>
      </trkpt>
      <trkpt lat="43.02144" lon="1.96683">
        <ele>339.5</ele>
        <time>2014-02-15T10:22:57.000Z</time>
      </trkpt>
      <trkpt lat="43.02144" lon="1.96685">
        <ele>340.9</ele>
        <time>2014-02-15T10:24:18.000Z</time>
      </trkpt>
      <trkpt lat="43.02139" lon="1.96712">
        <ele>339.5</ele>
        <time>2014-02-15T10:24:30.000Z</time>
      </trkpt>
      <trkpt lat="43.02136" lon="1.9672">
        <ele>339</ele>
        <time>2014-02-15T10:27:51.000Z</time>
      </trkpt>
      <trkpt lat="43.02137" lon="1.96721">
        <ele>339</ele>
        <time>2014-02-15T10:27:52.000Z</time>
      </trkpt>
      <trkpt lat="43.02138" lon="1.96723">
        <ele>339.5</ele>
        <time>2014-02-15T10:27:53.000Z</time>
      </trkpt>
      <trkpt lat="43.0214" lon="1.96771">
        <ele>338.5</ele>
        <time>2014-02-15T10:28:04.000Z</time>
      </trkpt>
      <trkpt lat="43.02163" lon="1.9681">
        <ele>339</ele>
        <time>2014-02-15T10:28:14.000Z</time>
      </trkpt>
      <trkpt lat="43.02194" lon="1.9684">
        <ele>340.9</ele>
        <time>2014-02-15T10:28:28.000Z</time>
      </trkpt>
      <trkpt lat="43.02195" lon="1.96841">
        <ele>340.9</ele>
        <time>2014-02-15T10:28:29.000Z</time>
      </trkpt>
      <trkpt lat="43.02195" lon="1.96841">
        <ele>340.9</ele>
        <time>2014-02-15T10:28:29.000Z</time>
      </trkpt>
      <trkpt lat="43.02194" lon="1.9684">
        <ele>340.9</ele>
        <time>2014-02-15T10:28:28.000Z</time>
      </trkpt>
      <trkpt lat="43.02163" lon="1.9681">
        <ele>339</ele>
        <time>2014-02-15T10:28:14.000Z</time>
      </trkpt>
      <trkpt lat="43.0214" lon="1.96771">
        <ele>338.5</ele>
        <time>2014-02-15T10:28:04.000Z</time>
      </trkpt>
      <trkpt lat="43.02138" lon="1.96723">
        <ele>339.5</ele>
        <time>2014-02-15T10:27:53.000Z</time>
      </trkpt>
      <trkpt lat="43.02137" lon="1.96721">
        <ele>339</ele>
        <time>2014-02-15T10:27:52.000Z</time>
      </trkpt>
      <trkpt lat="43.02136" lon="1.9672">
        <ele>339</ele>
        <time>2014-02-15T10:27:51.000Z</time>
      </trkpt>
      <trkpt lat="43.02139" lon="1.96712">
        <ele>339.5</ele>
        <time>2014-02-15T10:24:30.000Z</time>
      </trkpt>
      <trkpt lat="43.02144" lon="1.96685">
        <ele>340.9</ele>
        <time>2014-02-15T10:24:18.000Z</time>
      </trkpt>
      <trkpt lat="43.02144" lon="1.96683">
        <ele>339.5</ele>
        <time>2014-02-15T10:22:57.000Z</time>
      </trkpt>
      <trkpt lat="43.02145" lon="1.96683">
        <ele>340.4</ele>
        <time>2014-02-15T10:22:42.000Z</time>
      </trkpt>
      <trkpt lat="43.02146" lon="1.96682">
        <ele>340.4</ele>
        <time>2014-02-15T10:22:41.000Z</time>
      </trkpt>
      <trkpt lat="43.02147" lon="1.9668">
        <ele>339.5</ele>
        <time>2014-02-15T10:22:40.000Z</time>
      </trkpt>
      <trkpt lat="43.02148" lon="1.96678">
        <ele>340.4</ele>
        <time>2014-02-15T10:22:39.000Z</time>
      </trkpt>
      <trkpt lat="43.02148" lon="1.96676">
        <ele>340.9</ele>
        <time>2014-02-15T10:22:38.000Z</time>
      </trkpt>
      <trkpt lat="43.02149" lon="1.96674">
        <ele>340.9</ele>
        <time>2014-02-15T10:22:37.000Z</time>
      </trkpt>
      <trkpt lat="43.02149" lon="1.96672">
        <ele>340.4</ele>
        <time>2014-02-15T10:22:36.000Z</time>
      </trkpt>
      <trkpt lat="43.02149" lon="1.9667">
        <ele>340.4</ele>
        <time>2014-02-15T10:22:35.000Z</time>
      </trkpt>
      <trkpt lat="43.02149" lon="1.96668">
        <ele>340.9</ele>
        <time>2014-02-15T10:22:34.000Z</time>
      </trkpt>
      <trkpt lat="43.0215" lon="1.96667">
        <ele>340.4</ele>
        <time>2014-02-15T10:22:33.000Z</time>
      </trkpt>
      <trkpt lat="43.02151" lon="1.96667">
        <ele>339.5</ele>
        <time>2014-02-15T10:22:32.000Z</time>
      </trkpt>
      <trkpt lat="43.02152" lon="1.96666">
        <ele>341.4</ele>
        <time>2014-02-15T10:21:57.000Z</time>
      </trkpt>
      <trkpt lat="43.02152" lon="1.96664">
        <ele>341.4</ele>
        <time>2014-02-15T10:21:56.000Z</time>
      </trkpt>
      <trkpt lat="43.02152" lon="1.96662">
        <ele>341.4</ele>
        <time>2014-02-15T10:21:55.000Z</time>
      </trkpt>
      <trkpt lat="43.02152" lon="1.9666">
        <ele>340.9</ele>
        <time>2014-02-15T10:21:54.000Z</time>
      </trkpt>
      <trkpt lat="43.02153" lon="1.96658">
        <ele>340.9</ele>
        <time>2014-02-15T10:21:53.000Z</time>
      </trkpt>
      <trkpt lat="43.02153" lon="1.96603">
        <ele>342.9</ele>
        <time>2014-02-15T10:21:38.000Z</time>
      </trkpt>
      <trkpt lat="43.02153" lon="1.96599">
        <ele>342.9</ele>
        <time>2014-02-15T10:21:37.000Z</time>
      </trkpt>
      <trkpt lat="43.02153" lon="1.96596">
        <ele>342.4</ele>
        <time>2014-02-15T10:21:36.000Z</time>
      </trkpt>
      <trkpt lat="43.02153" lon="1.96593">
        <ele>342.4</ele>
        <time>2014-02-15T10:21:35.000Z</time>
      </trkpt>
      <trkpt lat="43.02153" lon="1.9659">
        <ele>341.9</ele>
        <time>2014-02-15T10:21:34.000Z</time>
      </trkpt>
      <trkpt lat="43.02153" lon="1.96588">
        <ele>342.9</ele>
        <time>2014-02-15T10:21:33.000Z</time>
      </trkpt>
      <trkpt lat="43.02153" lon="1.96586">
        <ele>341.9</ele>
        <time>2014-02-15T10:21:32.000Z</time>
      </trkpt>
      <trkpt lat="43.02152" lon="1.96586">
        <ele>342.4</ele>
        <time>2014-02-15T10:21:20.000Z</time>
      </trkpt>
      <trkpt lat="43.02152" lon="1.96586">
        <ele>342.4</ele>
        <time>2014-02-15T10:21:00.000Z</time>
      </trkpt>
      <trkpt lat="43.02152" lon="1.96578">
        <ele>340.9</ele>
        <time>2014-02-15T10:20:56.000Z</time>
      </trkpt>
      <trkpt lat="43.02152" lon="1.96575">
        <ele>342.4</ele>
        <time>2014-02-15T10:20:55.000Z</time>
      </trkpt>
      <trkpt lat="43.02152" lon="1.96571">
        <ele>342.4</ele>
        <time>2014-02-15T10:20:54.000Z</time>
      </trkpt>
      <trkpt lat="43.02153" lon="1.96568">
        <ele>342.4</ele>
        <time>2014-02-15T10:20:53.000Z</time>
      </trkpt>
      <trkpt lat="43.02153" lon="1.96565">
        <ele>343.3</ele>
        <time>2014-02-15T10:20:52.000Z</time>
      </trkpt>
      <trkpt lat="43.02151" lon="1.96563">
        <ele>341.9</ele>
        <time>2014-02-15T10:20:51.000Z</time>
      </trkpt>
      <trkpt lat="43.0215" lon="1.96561">
        <ele>341.4</ele>
        <time>2014-02-15T10:20:50.000Z</time>
      </trkpt>
      <trkpt lat="43.0215" lon="1.96558">
        <ele>341.9</ele>
        <time>2014-02-15T10:20:49.000Z</time>
      </trkpt>
      <trkpt lat="43.02151" lon="1.96556">
        <ele>342.9</ele>
        <time>2014-02-15T10:20:48.000Z</time>
      </trkpt>
      <trkpt lat="43.02152" lon="1.96556">
        <ele>341.9</ele>
        <time>2014-02-15T10:20:47.000Z</time>
      </trkpt>
      <trkpt lat="43.02153" lon="1.96558">
        <ele>342.4</ele>
        <time>2014-02-15T10:20:46.000Z</time>
      </trkpt>
      <trkpt lat="43.02152" lon="1.9656">
        <ele>342.4</ele>
        <time>2014-02-15T10:20:45.000Z</time>
      </trkpt>
      <trkpt lat="43.02152" lon="1.96562">
        <ele>341.4</ele>
        <time>2014-02-15T10:20:44.000Z</time>
      </trkpt>
      <trkpt lat="43.02152" lon="1.96561">
        <ele>342.9</ele>
        <time>2014-02-15T10:20:42.000Z</time>
      </trkpt>
      <trkpt lat="43.02152" lon="1.9656">
        <ele>342.4</ele>
        <time>2014-02-15T10:20:41.000Z</time>
      </trkpt>
      <trkpt lat="43.02153" lon="1.96557">
        <ele>341.9</ele>
        <time>2014-02-15T10:20:39.000Z</time>
      </trkpt>
      <trkpt lat="43.02153" lon="1.96554">
        <ele>341.9</ele>
        <time>2014-02-15T10:20:38.000Z</time>
      </trkpt>
      <trkpt lat="43.02153" lon="1.96551">
        <ele>341.4</ele>
        <time>2014-02-15T10:20:37.000Z</time>
      </trkpt>
      <trkpt lat="43.02154" lon="1.96548">
        <ele>341.4</ele>
        <time>2014-02-15T10:20:36.000Z</time>
      </trkpt>
      <trkpt lat="43.02154" lon="1.96544">
        <ele>342.4</ele>
        <time>2014-02-15T10:20:35.000Z</time>
      </trkpt>
      <trkpt lat="43.02155" lon="1.96541">
        <ele>342.4</ele>
        <time>2014-02-15T10:20:34.000Z</time>
      </trkpt>
      <trkpt lat="43.02156" lon="1.96538">
        <ele>341.9</ele>
        <time>2014-02-15T10:20:33.000Z</time>
      </trkpt>
      <trkpt lat="43.02157" lon="1.96535">
        <ele>341.9</ele>
        <time>2014-02-15T10:20:32.000Z</time>
      </trkpt>
      <trkpt lat="43.02158" lon="1.96532">
        <ele>342.4</ele>
        <time>2014-02-15T10:20:31.000Z</time>
      </trkpt>
      <trkpt lat="43.02158" lon="1.96529">
        <ele>341.9</ele>
        <time>2014-02-15T10:20:30.000Z</time>
      </trkpt>
      <trkpt lat="43.02159" lon="1.96528">
        <ele>340.9</ele>
        <time>2014-02-15T10:20:29.000Z</time>
      </trkpt>
      <trkpt lat="43.02159" lon="1.96526">
        <ele>340.9</ele>
        <time>2014-02-15T10:20:28.000Z</time>
      </trkpt>
      <trkpt lat="43.0216" lon="1.96524">
        <ele>340.9</ele>
        <time>2014-02-15T10:20:27.000Z</time>
      </trkpt>
      <trkpt lat="43.02159" lon="1.96527">
        <ele>341.4</ele>
        <time>2014-02-15T10:20:18.000Z</time>
      </trkpt>
      <trkpt lat="43.02165" lon="1.96501">
        <ele>340</ele>
        <time>2014-02-15T10:20:08.000Z</time>
      </trkpt>
      <trkpt lat="43.02165" lon="1.96498">
        <ele>340.4</ele>
        <time>2014-02-15T10:20:07.000Z</time>
      </trkpt>
      <trkpt lat="43.02165" lon="1.96495">
        <ele>340</ele>
        <time>2014-02-15T10:20:06.000Z</time>
      </trkpt>
      <trkpt lat="43.02166" lon="1.96492">
        <ele>340.4</ele>
        <time>2014-02-15T10:20:05.000Z</time>
      </trkpt>
      <trkpt lat="43.02167" lon="1.96489">
        <ele>340.4</ele>
        <time>2014-02-15T10:20:04.000Z</time>
      </trkpt>
      <trkpt lat="43.02168" lon="1.96486">
        <ele>340.9</ele>
        <time>2014-02-15T10:20:03.000Z</time>
      </trkpt>
      <trkpt lat="43.02168" lon="1.96483">
        <ele>340.9</ele>
        <time>2014-02-15T10:20:02.000Z</time>
      </trkpt>
      <trkpt lat="43.02169" lon="1.9648">
        <ele>340</ele>
        <time>2014-02-15T10:20:01.000Z</time>
      </trkpt>
      <trkpt lat="43.02169" lon="1.96477">
        <ele>340.4</ele>
        <time>2014-02-15T10:20:00.000Z</time>
      </trkpt>
      <trkpt lat="43.02165" lon="1.96469">
        <ele>340.9</ele>
        <time>2014-02-15T10:19:57.000Z</time>
      </trkpt>
      <trkpt lat="43.02164" lon="1.96465">
        <ele>340.4</ele>
        <time>2014-02-15T10:19:56.000Z</time>
      </trkpt>
      <trkpt lat="43.02164" lon="1.96457">
        <ele>340.9</ele>
        <time>2014-02-15T10:19:54.000Z</time>
      </trkpt>
      <trkpt lat="43.02168" lon="1.96426">
        <ele>344.3</ele>
        <time>2014-02-15T10:19:45.000Z</time>
      </trkpt>
      <trkpt lat="43.02167" lon="1.96412">
        <ele>346.2</ele>
        <time>2014-02-15T10:19:39.000Z</time>
      </trkpt>
      <trkpt lat="43.02166" lon="1.9641">
        <ele>345.3</ele>
        <time>2014-02-15T10:19:38.000Z</time>
      </trkpt>
      <trkpt lat="43.02166" lon="1.96408">
        <ele>345.3</ele>
        <time>2014-02-15T10:19:37.000Z</time>
      </trkpt>
      <trkpt lat="43.02165" lon="1.96406">
        <ele>345.3</ele>
        <time>2014-02-15T10:19:36.000Z</time>
      </trkpt>
      <trkpt lat="43.02164" lon="1.96403">
        <ele>345.3</ele>
        <time>2014-02-15T10:19:35.000Z</time>
      </trkpt>
      <trkpt lat="43.02162" lon="1.96401">
        <ele>345.3</ele>
        <time>2014-02-15T10:19:34.000Z</time>
      </trkpt>
      <trkpt lat="43.02121" lon="1.96396">
        <ele>344.8</ele>
        <time>2014-02-15T10:19:20.000Z</time>
      </trkpt>
      <trkpt lat="43.02118" lon="1.96396">
        <ele>345.7</ele>
        <time>2014-02-15T10:19:19.000Z</time>
      </trkpt>
      <trkpt lat="43.02116" lon="1.96396">
        <ele>345.3</ele>
        <time>2014-02-15T10:19:18.000Z</time>
      </trkpt>
      <trkpt lat="43.02115" lon="1.96396">
        <ele>345.3</ele>
        <time>2014-02-15T10:19:17.000Z</time>
      </trkpt>
      <trkpt lat="43.02112" lon="1.96396">
        <ele>344.8</ele>
        <time>2014-02-15T10:19:16.000Z</time>
      </trkpt>
      <trkpt lat="43.0211" lon="1.96396">
        <ele>345.3</ele>
        <time>2014-02-15T10:19:15.000Z</time>
      </trkpt>
      <trkpt lat="43.02107" lon="1.96397">
        <ele>345.7</ele>
        <time>2014-02-15T10:19:14.000Z</time>
      </trkpt>
      <trkpt lat="43.02105" lon="1.96397">
        <ele>345.3</ele>
        <time>2014-02-15T10:19:13.000Z</time>
      </trkpt>
      <trkpt lat="43.02103" lon="1.96397">
        <ele>343.8</ele>
        <time>2014-02-15T10:19:12.000Z</time>
      </trkpt>
      <trkpt lat="43.02101" lon="1.96397">
        <ele>345.3</ele>
        <time>2014-02-15T10:19:11.000Z</time>
      </trkpt>
      <trkpt lat="43.02095" lon="1.96395">
        <ele>344.3</ele>
        <time>2014-02-15T10:19:09.000Z</time>
      </trkpt>
      <trkpt lat="43.02058" lon="1.96384">
        <ele>344.8</ele>
        <time>2014-02-15T10:18:56.000Z</time>
      </trkpt>
      <trkpt lat="43.02056" lon="1.96384">
        <ele>345.3</ele>
        <time>2014-02-15T10:18:52.000Z</time>
      </trkpt>
      <trkpt lat="43.02055" lon="1.96383">
        <ele>345.3</ele>
        <time>2014-02-15T10:18:36.000Z</time>
      </trkpt>
      <trkpt lat="43.02054" lon="1.96382">
        <ele>345.3</ele>
        <time>2014-02-15T10:18:35.000Z</time>
      </trkpt>
      <trkpt lat="43.02054" lon="1.9638">
        <ele>344.8</ele>
        <time>2014-02-15T10:18:34.000Z</time>
      </trkpt>
      <trkpt lat="43.02047" lon="1.96377">
        <ele>344.8</ele>
        <time>2014-02-15T10:18:31.000Z</time>
      </trkpt>
      <trkpt lat="43.02044" lon="1.96375">
        <ele>344.8</ele>
        <time>2014-02-15T10:18:30.000Z</time>
      </trkpt>
      <trkpt lat="43.0204" lon="1.96373">
        <ele>345.3</ele>
        <time>2014-02-15T10:18:29.000Z</time>
      </trkpt>
      <trkpt lat="43.02037" lon="1.96372">
        <ele>344.8</ele>
        <time>2014-02-15T10:18:28.000Z</time>
      </trkpt>
      <trkpt lat="43.02034" lon="1.9637">
        <ele>344.3</ele>
        <time>2014-02-15T10:18:27.000Z</time>
      </trkpt>
      <trkpt lat="43.02031" lon="1.96367">
        <ele>344.8</ele>
        <time>2014-02-15T10:18:26.000Z</time>
      </trkpt>
      <trkpt lat="43.02014" lon="1.9636">
        <ele>344.3</ele>
        <time>2014-02-15T10:18:21.000Z</time>
      </trkpt>
      <trkpt lat="43.0196" lon="1.96338">
        <ele>343.8</ele>
        <time>2014-02-15T10:18:08.000Z</time>
      </trkpt>
      <trkpt lat="43.01956" lon="1.96336">
        <ele>344.3</ele>
        <time>2014-02-15T10:18:07.000Z</time>
      </trkpt>
      <trkpt lat="43.01923" lon="1.96321">
        <ele>345.3</ele>
        <time>2014-02-15T10:17:59.000Z</time>
      </trkpt>
      <trkpt lat="43.01919" lon="1.96319">
        <ele>344.3</ele>
        <time>2014-02-15T10:17:58.000Z</time>
      </trkpt>
      <trkpt lat="43.01883" lon="1.96301">
        <ele>344.3</ele>
        <time>2014-02-15T10:17:47.000Z</time>
      </trkpt>
      <trkpt lat="43.01863" lon="1.96293">
        <ele>344.3</ele>
        <time>2014-02-15T10:17:36.000Z</time>
      </trkpt>
      <trkpt lat="43.01857" lon="1.96291">
        <ele>344.8</ele>
        <time>2014-02-15T10:17:26.000Z</time>
      </trkpt>
      <trkpt lat="43.01855" lon="1.9629">
        <ele>343.8</ele>
        <time>2014-02-15T10:16:41.000Z</time>
      </trkpt>
      <trkpt lat="43.01843" lon="1.96276">
        <ele>343.8</ele>
        <time>2014-02-15T10:16:29.000Z</time>
      </trkpt>
      <trkpt lat="43.01804" lon="1.96255">
        <ele>344.3</ele>
        <time>2014-02-15T10:16:14.000Z</time>
      </trkpt>
      <trkpt lat="43.01775" lon="1.96242">
        <ele>344.3</ele>
        <time>2014-02-15T10:16:02.000Z</time>
      </trkpt>
      <trkpt lat="43.01763" lon="1.96235">
        <ele>344.8</ele>
        <time>2014-02-15T10:15:43.000Z</time>
      </trkpt>
      <trkpt lat="43.01763" lon="1.96235">
        <ele>343.3</ele>
        <time>2014-02-15T10:15:27.000Z</time>
      </trkpt>
      <trkpt lat="43.01763" lon="1.96235">
        <ele>343.3</ele>
        <time>2014-02-15T10:15:26.000Z</time>
      </trkpt>
      <trkpt lat="43.01757" lon="1.96233">
        <ele>343.8</ele>
        <time>2014-02-15T10:15:14.000Z</time>
      </trkpt>
      <trkpt lat="43.01668" lon="1.96194">
        <ele>343.8</ele>
        <time>2014-02-15T10:15:13.000Z</time>
      </trkpt>
      <trkpt lat="43.01588" lon="1.96163">
        <ele>343.8</ele>
        <time>2014-02-15T10:14:59.000Z</time>
      </trkpt>
      <trkpt lat="43.01488" lon="1.96155">
        <ele>344.3</ele>
        <time>2014-02-15T10:14:05.000Z</time>
      </trkpt>
      <trkpt lat="43.0141" lon="1.96173">
        <ele>345.3</ele>
        <time>2014-02-15T10:13:51.000Z</time>
      </trkpt>
      <trkpt lat="43.014" lon="1.96175">
        <ele>344.8</ele>
        <time>2014-02-15T10:13:49.000Z</time>
      </trkpt>
      <trkpt lat="43.01341" lon="1.96193">
        <ele>344.3</ele>
        <time>2014-02-15T10:13:37.000Z</time>
      </trkpt>
      <trkpt lat="43.01303" lon="1.96202">
        <ele>344.3</ele>
        <time>2014-02-15T10:13:28.000Z</time>
      </trkpt>
      <trkpt lat="43.01292" lon="1.96203">
        <ele>344.3</ele>
        <time>2014-02-15T10:13:26.000Z</time>
      </trkpt>
      <trkpt lat="43.01285" lon="1.96206">
        <ele>343.8</ele>
        <time>2014-02-15T10:13:25.000Z</time>
      </trkpt>
      <trkpt lat="43.01264" lon="1.96211">
        <ele>343.8</ele>
        <time>2014-02-15T10:13:23.000Z</time>
      </trkpt>
      <trkpt lat="43.01237" lon="1.96219">
        <ele>344.3</ele>
        <time>2014-02-15T10:13:14.000Z</time>
      </trkpt>
      <trkpt lat="43.01213" lon="1.96232">
        <ele>344.3</ele>
        <time>2014-02-15T10:13:02.000Z</time>
      </trkpt>
      <trkpt lat="43.01168" lon="1.96263">
        <ele>344.8</ele>
        <time>2014-02-15T10:12:36.000Z</time>
      </trkpt>
      <trkpt lat="43.01161" lon="1.96269">
        <ele>343.8</ele>
        <time>2014-02-15T10:12:24.000Z</time>
      </trkpt>
      <trkpt lat="43.01112" lon="1.96302">
        <ele>345.7</ele>
        <time>2014-02-15T10:12:13.000Z</time>
      </trkpt>
      <trkpt lat="43.01043" lon="1.96345">
        <ele>346.2</ele>
        <time>2014-02-15T10:12:09.000Z</time>
      </trkpt>
      <trkpt lat="43.00995" lon="1.96377">
        <ele>345.3</ele>
        <time>2014-02-15T10:11:52.000Z</time>
      </trkpt>
      <trkpt lat="43.00935" lon="1.96422">
        <ele>345.3</ele>
        <time>2014-02-15T10:11:20.000Z</time>
      </trkpt>
      <trkpt lat="43.00909" lon="1.96455">
        <ele>346.7</ele>
        <time>2014-02-15T10:11:12.000Z</time>
      </trkpt>
      <trkpt lat="43.00906" lon="1.96467">
        <ele>345.7</ele>
        <time>2014-02-15T10:11:11.000Z</time>
      </trkpt>
      <trkpt lat="43.00899" lon="1.96473">
        <ele>345.7</ele>
        <time>2014-02-15T10:11:10.000Z</time>
      </trkpt>
      <trkpt lat="43.009" lon="1.9648">
        <ele>352</ele>
        <time>2014-02-15T11:11:46.000Z</time>
      </trkpt>
      <trkpt lat="43.00902" lon="1.96483">
        <ele>351</ele>
        <time>2014-02-15T11:11:47.000Z</time>
      </trkpt>
      <trkpt lat="43.00898" lon="1.96487">
        <ele>351</ele>
        <time>2014-02-15T11:11:48.000Z</time>
      </trkpt>
      <trkpt lat="43.00894" lon="1.96492">
        <ele>351</ele>
        <time>2014-02-15T11:11:49.000Z</time>
      </trkpt>
      <trkpt lat="43.00891" lon="1.96497">
        <ele>351.5</ele>
        <time>2014-02-15T11:11:50.000Z</time>
      </trkpt>
      <trkpt lat="43.00887" lon="1.96501">
        <ele>351</ele>
        <time>2014-02-15T11:11:51.000Z</time>
      </trkpt>
      <trkpt lat="43.00883" lon="1.96505">
        <ele>351</ele>
        <time>2014-02-15T11:11:52.000Z</time>
      </trkpt>
      <trkpt lat="43.00879" lon="1.9651">
        <ele>350.5</ele>
        <time>2014-02-15T11:11:53.000Z</time>
      </trkpt>
      <trkpt lat="43.00876" lon="1.96515">
        <ele>351</ele>
        <time>2014-02-15T11:11:54.000Z</time>
      </trkpt>
      <trkpt lat="43.00873" lon="1.9652">
        <ele>351</ele>
        <time>2014-02-15T11:11:55.000Z</time>
      </trkpt>
      <trkpt lat="43.0087" lon="1.96526">
        <ele>351</ele>
        <time>2014-02-15T11:11:56.000Z</time>
      </trkpt>
      <trkpt lat="43.00867" lon="1.96531">
        <ele>351</ele>
        <time>2014-02-15T11:11:57.000Z</time>
      </trkpt>
      <trkpt lat="43.00864" lon="1.96536">
        <ele>350.1</ele>
        <time>2014-02-15T11:11:58.000Z</time>
      </trkpt>
      <trkpt lat="43.00858" lon="1.96545">
        <ele>351</ele>
        <time>2014-02-15T11:12:00.000Z</time>
      </trkpt>
      <trkpt lat="43.00856" lon="1.9655">
        <ele>350.5</ele>
        <time>2014-02-15T11:12:01.000Z</time>
      </trkpt>
      <trkpt lat="43.00854" lon="1.96554">
        <ele>349.6</ele>
        <time>2014-02-15T11:12:02.000Z</time>
      </trkpt>
      <trkpt lat="43.00847" lon="1.96569">
        <ele>350.5</ele>
        <time>2014-02-15T11:12:05.000Z</time>
      </trkpt>
      <trkpt lat="43.00839" lon="1.9659">
        <ele>351</ele>
        <time>2014-02-15T11:12:09.000Z</time>
      </trkpt>
      <trkpt lat="43.00837" lon="1.96596">
        <ele>351</ele>
        <time>2014-02-15T11:12:10.000Z</time>
      </trkpt>
      <trkpt lat="43.00835" lon="1.96601">
        <ele>351.5</ele>
        <time>2014-02-15T11:12:11.000Z</time>
      </trkpt>
      <trkpt lat="43.00827" lon="1.96623">
        <ele>351.5</ele>
        <time>2014-02-15T11:12:15.000Z</time>
      </trkpt>
      <trkpt lat="43.00825" lon="1.96629">
        <ele>350.5</ele>
        <time>2014-02-15T11:12:16.000Z</time>
      </trkpt>
      <trkpt lat="43.00817" lon="1.96652">
        <ele>351.5</ele>
        <time>2014-02-15T11:12:20.000Z</time>
      </trkpt>
      <trkpt lat="43.00816" lon="1.96658">
        <ele>352</ele>
        <time>2014-02-15T11:12:21.000Z</time>
      </trkpt>
      <trkpt lat="43.00806" lon="1.96707">
        <ele>352.5</ele>
        <time>2014-02-15T11:12:30.000Z</time>
      </trkpt>
      <trkpt lat="43.00792" lon="1.96796">
        <ele>352.5</ele>
        <time>2014-02-15T11:12:44.000Z</time>
      </trkpt>
      <trkpt lat="43.0079" lon="1.9682">
        <ele>352.9</ele>
        <time>2014-02-15T11:12:48.000Z</time>
      </trkpt>
      <trkpt lat="43.00788" lon="1.96832">
        <ele>352</ele>
        <time>2014-02-15T11:12:50.000Z</time>
      </trkpt>
      <trkpt lat="43.00788" lon="1.96838">
        <ele>352.5</ele>
        <time>2014-02-15T11:12:51.000Z</time>
      </trkpt>
      <trkpt lat="43.00783" lon="1.96874">
        <ele>352.9</ele>
        <time>2014-02-15T11:12:58.000Z</time>
      </trkpt>
      <trkpt lat="43.00783" lon="1.9688">
        <ele>352</ele>
        <time>2014-02-15T11:12:59.000Z</time>
      </trkpt>
      <trkpt lat="43.00775" lon="1.96954">
        <ele>352</ele>
        <time>2014-02-15T11:13:11.000Z</time>
      </trkpt>
      <trkpt lat="43.00773" lon="1.9696">
        <ele>352.5</ele>
        <time>2014-02-15T11:13:12.000Z</time>
      </trkpt>
      <trkpt lat="43.00773" lon="1.96967">
        <ele>351.5</ele>
        <time>2014-02-15T11:13:13.000Z</time>
      </trkpt>
      <trkpt lat="43.00772" lon="1.96973">
        <ele>352.5</ele>
        <time>2014-02-15T11:13:14.000Z</time>
      </trkpt>
      <trkpt lat="43.00772" lon="1.9698">
        <ele>352.9</ele>
        <time>2014-02-15T11:13:15.000Z</time>
      </trkpt>
      <trkpt lat="43.00771" lon="1.96986">
        <ele>352</ele>
        <time>2014-02-15T11:13:16.000Z</time>
      </trkpt>
      <trkpt lat="43.00769" lon="1.96992">
        <ele>352</ele>
        <time>2014-02-15T11:13:17.000Z</time>
      </trkpt>
      <trkpt lat="43.00768" lon="1.96998">
        <ele>352.5</ele>
        <time>2014-02-15T11:13:18.000Z</time>
      </trkpt>
      <trkpt lat="43.00766" lon="1.97005">
        <ele>352</ele>
        <time>2014-02-15T11:13:19.000Z</time>
      </trkpt>
      <trkpt lat="43.00765" lon="1.97011">
        <ele>352</ele>
        <time>2014-02-15T11:13:20.000Z</time>
      </trkpt>
      <trkpt lat="43.00762" lon="1.97044">
        <ele>353.4</ele>
        <time>2014-02-15T11:13:25.000Z</time>
      </trkpt>
      <trkpt lat="43.0076" lon="1.97063">
        <ele>352</ele>
        <time>2014-02-15T11:13:28.000Z</time>
      </trkpt>
      <trkpt lat="43.00759" lon="1.9707">
        <ele>351.5</ele>
        <time>2014-02-15T11:13:29.000Z</time>
      </trkpt>
      <trkpt lat="43.00757" lon="1.9709">
        <ele>352</ele>
        <time>2014-02-15T11:13:32.000Z</time>
      </trkpt>
      <trkpt lat="43.00756" lon="1.97096">
        <ele>352.5</ele>
        <time>2014-02-15T11:13:33.000Z</time>
      </trkpt>
      <trkpt lat="43.00752" lon="1.97129">
        <ele>352</ele>
        <time>2014-02-15T11:13:38.000Z</time>
      </trkpt>
      <trkpt lat="43.00751" lon="1.97135">
        <ele>352.5</ele>
        <time>2014-02-15T11:13:39.000Z</time>
      </trkpt>
      <trkpt lat="43.0075" lon="1.97141">
        <ele>352.5</ele>
        <time>2014-02-15T11:13:40.000Z</time>
      </trkpt>
      <trkpt lat="43.00749" lon="1.97161">
        <ele>352.5</ele>
        <time>2014-02-15T11:13:43.000Z</time>
      </trkpt>
      <trkpt lat="43.00748" lon="1.97167">
        <ele>352.5</ele>
        <time>2014-02-15T11:13:44.000Z</time>
      </trkpt>
      <trkpt lat="43.00748" lon="1.97174">
        <ele>352.5</ele>
        <time>2014-02-15T11:13:45.000Z</time>
      </trkpt>
      <trkpt lat="43.00745" lon="1.97215">
        <ele>353.9</ele>
        <time>2014-02-15T11:13:51.000Z</time>
      </trkpt>
      <trkpt lat="43.00744" lon="1.97228">
        <ele>353.4</ele>
        <time>2014-02-15T11:13:53.000Z</time>
      </trkpt>
      <trkpt lat="43.00743" lon="1.97234">
        <ele>352.5</ele>
        <time>2014-02-15T11:13:54.000Z</time>
      </trkpt>
      <trkpt lat="43.00744" lon="1.97241">
        <ele>352.9</ele>
        <time>2014-02-15T11:13:55.000Z</time>
      </trkpt>
      <trkpt lat="43.00744" lon="1.97248">
        <ele>352.9</ele>
        <time>2014-02-15T11:13:56.000Z</time>
      </trkpt>
      <trkpt lat="43.00745" lon="1.97254">
        <ele>352.9</ele>
        <time>2014-02-15T11:13:57.000Z</time>
      </trkpt>
      <trkpt lat="43.00746" lon="1.97261">
        <ele>352.5</ele>
        <time>2014-02-15T11:13:58.000Z</time>
      </trkpt>
      <trkpt lat="43.00746" lon="1.97268">
        <ele>352.9</ele>
        <time>2014-02-15T11:13:59.000Z</time>
      </trkpt>
      <trkpt lat="43.00747" lon="1.97275">
        <ele>352.5</ele>
        <time>2014-02-15T11:14:00.000Z</time>
      </trkpt>
      <trkpt lat="43.00747" lon="1.97281">
        <ele>352</ele>
        <time>2014-02-15T11:14:01.000Z</time>
      </trkpt>
      <trkpt lat="43.00749" lon="1.97287">
        <ele>353.4</ele>
        <time>2014-02-15T11:14:02.000Z</time>
      </trkpt>
      <trkpt lat="43.00751" lon="1.97294">
        <ele>352.5</ele>
        <time>2014-02-15T11:14:03.000Z</time>
      </trkpt>
      <trkpt lat="43.00751" lon="1.97301">
        <ele>353.4</ele>
        <time>2014-02-15T11:14:04.000Z</time>
      </trkpt>
      <trkpt lat="43.00751" lon="1.97315">
        <ele>353.4</ele>
        <time>2014-02-15T11:14:06.000Z</time>
      </trkpt>
      <trkpt lat="43.00756" lon="1.97392">
        <ele>353.9</ele>
        <time>2014-02-15T11:14:17.000Z</time>
      </trkpt>
      <trkpt lat="43.00757" lon="1.97398">
        <ele>354.4</ele>
        <time>2014-02-15T11:14:18.000Z</time>
      </trkpt>
      <trkpt lat="43.00761" lon="1.97431">
        <ele>353.9</ele>
        <time>2014-02-15T11:14:23.000Z</time>
      </trkpt>
      <trkpt lat="43.00762" lon="1.97437">
        <ele>352.5</ele>
        <time>2014-02-15T11:14:24.000Z</time>
      </trkpt>
      <trkpt lat="43.00763" lon="1.97444">
        <ele>352.9</ele>
        <time>2014-02-15T11:14:25.000Z</time>
      </trkpt>
      <trkpt lat="43.00764" lon="1.9745">
        <ele>352.5</ele>
        <time>2014-02-15T11:14:26.000Z</time>
      </trkpt>
      <trkpt lat="43.00783" lon="1.97556">
        <ele>353.9</ele>
        <time>2014-02-15T11:14:42.000Z</time>
      </trkpt>
      <trkpt lat="43.00786" lon="1.97568">
        <ele>353.4</ele>
        <time>2014-02-15T11:14:44.000Z</time>
      </trkpt>
      <trkpt lat="43.00793" lon="1.97622">
        <ele>354.4</ele>
        <time>2014-02-15T11:14:52.000Z</time>
      </trkpt>
      <trkpt lat="43.00797" lon="1.97647">
        <ele>353.9</ele>
        <time>2014-02-15T11:14:56.000Z</time>
      </trkpt>
      <trkpt lat="43.00801" lon="1.97666">
        <ele>354.9</ele>
        <time>2014-02-15T11:14:59.000Z</time>
      </trkpt>
      <trkpt lat="43.00803" lon="1.97673">
        <ele>354.9</ele>
        <time>2014-02-15T11:15:00.000Z</time>
      </trkpt>
      <trkpt lat="43.00804" lon="1.9768">
        <ele>354.9</ele>
        <time>2014-02-15T11:15:01.000Z</time>
      </trkpt>
      <trkpt lat="43.00808" lon="1.97708">
        <ele>354.9</ele>
        <time>2014-02-15T11:15:05.000Z</time>
      </trkpt>
      <trkpt lat="43.00809" lon="1.97715">
        <ele>354.9</ele>
        <time>2014-02-15T11:15:06.000Z</time>
      </trkpt>
      <trkpt lat="43.00816" lon="1.97749">
        <ele>355.3</ele>
        <time>2014-02-15T11:15:11.000Z</time>
      </trkpt>
      <trkpt lat="43.00828" lon="1.9781">
        <ele>355.3</ele>
        <time>2014-02-15T11:15:20.000Z</time>
      </trkpt>
      <trkpt lat="43.0083" lon="1.97817">
        <ele>354.9</ele>
        <time>2014-02-15T11:15:21.000Z</time>
      </trkpt>
      <trkpt lat="43.00835" lon="1.97837">
        <ele>354.9</ele>
        <time>2014-02-15T11:15:24.000Z</time>
      </trkpt>
      <trkpt lat="43.00837" lon="1.97843">
        <ele>355.3</ele>
        <time>2014-02-15T11:15:25.000Z</time>
      </trkpt>
      <trkpt lat="43.00838" lon="1.9785">
        <ele>355.3</ele>
        <time>2014-02-15T11:15:26.000Z</time>
      </trkpt>
      <trkpt lat="43.0084" lon="1.97857">
        <ele>354.9</ele>
        <time>2014-02-15T11:15:27.000Z</time>
      </trkpt>
      <trkpt lat="43.00841" lon="1.97864">
        <ele>354.9</ele>
        <time>2014-02-15T11:15:28.000Z</time>
      </trkpt>
      <trkpt lat="43.00843" lon="1.97878">
        <ele>354.9</ele>
        <time>2014-02-15T11:15:30.000Z</time>
      </trkpt>
      <trkpt lat="43.00845" lon="1.97885">
        <ele>354.4</ele>
        <time>2014-02-15T11:15:31.000Z</time>
      </trkpt>
      <trkpt lat="43.00857" lon="1.97933">
        <ele>355.8</ele>
        <time>2014-02-15T11:15:38.000Z</time>
      </trkpt>
      <trkpt lat="43.00864" lon="1.97963">
        <ele>356.3</ele>
        <time>2014-02-15T11:15:42.000Z</time>
      </trkpt>
      <trkpt lat="43.00872" lon="1.97991">
        <ele>355.3</ele>
        <time>2014-02-15T11:15:46.000Z</time>
      </trkpt>
      <trkpt lat="43.00879" lon="1.9801">
        <ele>354.9</ele>
        <time>2014-02-15T11:15:49.000Z</time>
      </trkpt>
      <trkpt lat="43.0088" lon="1.98017">
        <ele>355.8</ele>
        <time>2014-02-15T11:15:50.000Z</time>
      </trkpt>
      <trkpt lat="43.00885" lon="1.98045">
        <ele>356.3</ele>
        <time>2014-02-15T11:15:54.000Z</time>
      </trkpt>
      <trkpt lat="43.00886" lon="1.98052">
        <ele>356.3</ele>
        <time>2014-02-15T11:15:55.000Z</time>
      </trkpt>
      <trkpt lat="43.00897" lon="1.98133">
        <ele>358.2</ele>
        <time>2014-02-15T11:16:07.000Z</time>
      </trkpt>
      <trkpt lat="43.00896" lon="1.98141">
        <ele>356.3</ele>
        <time>2014-02-15T11:16:08.000Z</time>
      </trkpt>
      <trkpt lat="43.00899" lon="1.98219">
        <ele>358.2</ele>
        <time>2014-02-15T11:16:19.000Z</time>
      </trkpt>
      <trkpt lat="43.00899" lon="1.98226">
        <ele>357.3</ele>
        <time>2014-02-15T11:16:20.000Z</time>
      </trkpt>
      <trkpt lat="43.00899" lon="1.98255">
        <ele>358.7</ele>
        <time>2014-02-15T11:16:24.000Z</time>
      </trkpt>
      <trkpt lat="43.00898" lon="1.98269">
        <ele>358.2</ele>
        <time>2014-02-15T11:16:26.000Z</time>
      </trkpt>
      <trkpt lat="43.00893" lon="1.98319">
        <ele>359.2</ele>
        <time>2014-02-15T11:16:33.000Z</time>
      </trkpt>
      <trkpt lat="43.00891" lon="1.98333">
        <ele>358.2</ele>
        <time>2014-02-15T11:16:35.000Z</time>
      </trkpt>
      <trkpt lat="43.00886" lon="1.98355">
        <ele>359.2</ele>
        <time>2014-02-15T11:16:38.000Z</time>
      </trkpt>
      <trkpt lat="43.00877" lon="1.98406">
        <ele>360.2</ele>
        <time>2014-02-15T11:16:45.000Z</time>
      </trkpt>
      <trkpt lat="43.00874" lon="1.98413">
        <ele>359.2</ele>
        <time>2014-02-15T11:16:46.000Z</time>
      </trkpt>
      <trkpt lat="43.00871" lon="1.98419">
        <ele>359.7</ele>
        <time>2014-02-15T11:16:47.000Z</time>
      </trkpt>
      <trkpt lat="43.00861" lon="1.98454">
        <ele>359.7</ele>
        <time>2014-02-15T11:16:52.000Z</time>
      </trkpt>
      <trkpt lat="43.00828" lon="1.98526">
        <ele>359.7</ele>
        <time>2014-02-15T11:17:03.000Z</time>
      </trkpt>
      <trkpt lat="43.00807" lon="1.9856">
        <ele>358.7</ele>
        <time>2014-02-15T11:17:09.000Z</time>
      </trkpt>
      <trkpt lat="43.00804" lon="1.98565">
        <ele>359.2</ele>
        <time>2014-02-15T11:17:10.000Z</time>
      </trkpt>
      <trkpt lat="43.0079" lon="1.98586">
        <ele>358.7</ele>
        <time>2014-02-15T11:17:14.000Z</time>
      </trkpt>
      <trkpt lat="43.00786" lon="1.98591">
        <ele>358.7</ele>
        <time>2014-02-15T11:17:15.000Z</time>
      </trkpt>
      <trkpt lat="43.00782" lon="1.98596">
        <ele>358.7</ele>
        <time>2014-02-15T11:17:16.000Z</time>
      </trkpt>
      <trkpt lat="43.00713" lon="1.98659">
        <ele>358.7</ele>
        <time>2014-02-15T11:17:30.000Z</time>
      </trkpt>
      <trkpt lat="43.00708" lon="1.98663">
        <ele>357.8</ele>
        <time>2014-02-15T11:17:31.000Z</time>
      </trkpt>
      <trkpt lat="43.00649" lon="1.98696">
        <ele>358.2</ele>
        <time>2014-02-15T11:17:43.000Z</time>
      </trkpt>
      <trkpt lat="43.00644" lon="1.98698">
        <ele>358.7</ele>
        <time>2014-02-15T11:17:44.000Z</time>
      </trkpt>
      <trkpt lat="43.00639" lon="1.987">
        <ele>358.7</ele>
        <time>2014-02-15T11:17:45.000Z</time>
      </trkpt>
      <trkpt lat="43.00635" lon="1.98701">
        <ele>358.2</ele>
        <time>2014-02-15T11:17:46.000Z</time>
      </trkpt>
      <trkpt lat="43.0063" lon="1.98703">
        <ele>358.2</ele>
        <time>2014-02-15T11:17:47.000Z</time>
      </trkpt>
      <trkpt lat="43.00625" lon="1.98704">
        <ele>357.8</ele>
        <time>2014-02-15T11:17:48.000Z</time>
      </trkpt>
      <trkpt lat="43.00599" lon="1.98711">
        <ele>358.2</ele>
        <time>2014-02-15T11:17:54.000Z</time>
      </trkpt>
      <trkpt lat="43.00595" lon="1.98713">
        <ele>358.2</ele>
        <time>2014-02-15T11:17:55.000Z</time>
      </trkpt>
      <trkpt lat="43.0059" lon="1.98715">
        <ele>358.7</ele>
        <time>2014-02-15T11:17:56.000Z</time>
      </trkpt>
      <trkpt lat="43.00586" lon="1.98716">
        <ele>358.2</ele>
        <time>2014-02-15T11:17:57.000Z</time>
      </trkpt>
      <trkpt lat="43.00581" lon="1.98718">
        <ele>358.7</ele>
        <time>2014-02-15T11:17:58.000Z</time>
      </trkpt>
      <trkpt lat="43.00576" lon="1.98719">
        <ele>358.2</ele>
        <time>2014-02-15T11:17:59.000Z</time>
      </trkpt>
      <trkpt lat="43.00566" lon="1.98722">
        <ele>357.3</ele>
        <time>2014-02-15T11:18:01.000Z</time>
      </trkpt>
      <trkpt lat="43.00521" lon="1.98737">
        <ele>358.7</ele>
        <time>2014-02-15T11:18:13.000Z</time>
      </trkpt>
      <trkpt lat="43.00517" lon="1.98738">
        <ele>358.2</ele>
        <time>2014-02-15T11:18:14.000Z</time>
      </trkpt>
      <trkpt lat="43.00512" lon="1.98738">
        <ele>358.2</ele>
        <time>2014-02-15T11:18:15.000Z</time>
      </trkpt>
      <trkpt lat="43.00508" lon="1.9874">
        <ele>358.2</ele>
        <time>2014-02-15T11:18:16.000Z</time>
      </trkpt>
      <trkpt lat="43.00504" lon="1.98742">
        <ele>358.7</ele>
        <time>2014-02-15T11:18:17.000Z</time>
      </trkpt>
      <trkpt lat="43.00499" lon="1.98744">
        <ele>358.2</ele>
        <time>2014-02-15T11:18:18.000Z</time>
      </trkpt>
      <trkpt lat="43.00488" lon="1.98748">
        <ele>359.2</ele>
        <time>2014-02-15T11:18:20.000Z</time>
      </trkpt>
      <trkpt lat="43.00478" lon="1.98751">
        <ele>359.2</ele>
        <time>2014-02-15T11:18:22.000Z</time>
      </trkpt>
      <trkpt lat="43.00473" lon="1.98754">
        <ele>359.2</ele>
        <time>2014-02-15T11:18:23.000Z</time>
      </trkpt>
      <trkpt lat="43.00464" lon="1.98758">
        <ele>359.2</ele>
        <time>2014-02-15T11:18:25.000Z</time>
      </trkpt>
      <trkpt lat="43.0045" lon="1.98766">
        <ele>359.7</ele>
        <time>2014-02-15T11:18:29.000Z</time>
      </trkpt>
      <trkpt lat="43.00429" lon="1.98778">
        <ele>359.2</ele>
        <time>2014-02-15T11:18:35.000Z</time>
      </trkpt>
      <trkpt lat="43.00405" lon="1.98794">
        <ele>358.7</ele>
        <time>2014-02-15T11:18:42.000Z</time>
      </trkpt>
      <trkpt lat="43.0039" lon="1.98805">
        <ele>360.6</ele>
        <time>2014-02-15T11:18:46.000Z</time>
      </trkpt>
      <trkpt lat="43.00386" lon="1.98807">
        <ele>359.2</ele>
        <time>2014-02-15T11:18:47.000Z</time>
      </trkpt>
      <trkpt lat="43.00363" lon="1.98827">
        <ele>359.2</ele>
        <time>2014-02-15T11:18:53.000Z</time>
      </trkpt>
      <trkpt lat="43.0036" lon="1.9883">
        <ele>359.7</ele>
        <time>2014-02-15T11:18:54.000Z</time>
      </trkpt>
      <trkpt lat="43.00332" lon="1.98866">
        <ele>359.7</ele>
        <time>2014-02-15T11:19:07.000Z</time>
      </trkpt>
      <trkpt lat="43.00318" lon="1.98872">
        <ele>361.6</ele>
        <time>2014-02-15T11:28:33.000Z</time>
      </trkpt>
      <trkpt lat="43.00316" lon="1.98874">
        <ele>361.6</ele>
        <time>2014-02-15T11:28:34.000Z</time>
      </trkpt>
      <trkpt lat="43.00314" lon="1.98876">
        <ele>362.6</ele>
        <time>2014-02-15T11:28:35.000Z</time>
      </trkpt>
      <trkpt lat="43.00283" lon="1.98907">
        <ele>363</ele>
        <time>2014-02-15T11:28:46.000Z</time>
      </trkpt>
      <trkpt lat="43.00248" lon="1.98938">
        <ele>362.1</ele>
        <time>2014-02-15T11:28:57.000Z</time>
      </trkpt>
      <trkpt lat="43.00241" lon="1.98944">
        <ele>362.6</ele>
        <time>2014-02-15T11:28:59.000Z</time>
      </trkpt>
      <trkpt lat="43.00238" lon="1.98947">
        <ele>362.6</ele>
        <time>2014-02-15T11:29:00.000Z</time>
      </trkpt>
      <trkpt lat="43.0019" lon="1.98992">
        <ele>361.1</ele>
        <time>2014-02-15T11:29:14.000Z</time>
      </trkpt>
      <trkpt lat="43.00179" lon="1.99003">
        <ele>364</ele>
        <time>2014-02-15T11:29:17.000Z</time>
      </trkpt>
      <trkpt lat="43.00168" lon="1.99012">
        <ele>363</ele>
        <time>2014-02-15T11:29:20.000Z</time>
      </trkpt>
      <trkpt lat="43.00126" lon="1.99057">
        <ele>363</ele>
        <time>2014-02-15T11:29:33.000Z</time>
      </trkpt>
      <trkpt lat="43.00081" lon="1.99111">
        <ele>364</ele>
        <time>2014-02-15T11:29:47.000Z</time>
      </trkpt>
      <trkpt lat="43.00046" lon="1.99157">
        <ele>363.5</ele>
        <time>2014-02-15T11:29:58.000Z</time>
      </trkpt>
      <trkpt lat="42.99999" lon="1.99235">
        <ele>364</ele>
        <time>2014-02-15T11:30:14.000Z</time>
      </trkpt>
      <trkpt lat="42.99991" lon="1.9925">
        <ele>363.5</ele>
        <time>2014-02-15T11:30:17.000Z</time>
      </trkpt>
      <trkpt lat="42.99989" lon="1.99255">
        <ele>364.5</ele>
        <time>2014-02-15T11:30:18.000Z</time>
      </trkpt>
      <trkpt lat="42.99963" lon="1.99313">
        <ele>362.6</ele>
        <time>2014-02-15T11:30:29.000Z</time>
      </trkpt>
      <trkpt lat="42.99961" lon="1.99318">
        <ele>364.5</ele>
        <time>2014-02-15T11:30:30.000Z</time>
      </trkpt>
      <trkpt lat="42.99959" lon="1.99324">
        <ele>364</ele>
        <time>2014-02-15T11:30:31.000Z</time>
      </trkpt>
      <trkpt lat="42.99952" lon="1.99349">
        <ele>364</ele>
        <time>2014-02-15T11:30:35.000Z</time>
      </trkpt>
      <trkpt lat="42.99944" lon="1.99366">
        <ele>364</ele>
        <time>2014-02-15T11:30:38.000Z</time>
      </trkpt>
      <trkpt lat="42.99942" lon="1.99372">
        <ele>363</ele>
        <time>2014-02-15T11:30:39.000Z</time>
      </trkpt>
      <trkpt lat="42.99939" lon="1.99378">
        <ele>365</ele>
        <time>2014-02-15T11:30:40.000Z</time>
      </trkpt>
      <trkpt lat="42.99935" lon="1.99391">
        <ele>365</ele>
        <time>2014-02-15T11:30:42.000Z</time>
      </trkpt>
      <trkpt lat="42.99932" lon="1.99397">
        <ele>364</ele>
        <time>2014-02-15T11:30:43.000Z</time>
      </trkpt>
      <trkpt lat="42.9993" lon="1.99404">
        <ele>364.5</ele>
        <time>2014-02-15T11:30:44.000Z</time>
      </trkpt>
      <trkpt lat="42.99927" lon="1.99416">
        <ele>364</ele>
        <time>2014-02-15T11:30:46.000Z</time>
      </trkpt>
      <trkpt lat="42.99926" lon="1.99423">
        <ele>364.5</ele>
        <time>2014-02-15T11:30:47.000Z</time>
      </trkpt>
      <trkpt lat="42.99916" lon="1.99453">
        <ele>365</ele>
        <time>2014-02-15T11:30:52.000Z</time>
      </trkpt>
      <trkpt lat="42.99914" lon="1.99459">
        <ele>364.5</ele>
        <time>2014-02-15T11:30:53.000Z</time>
      </trkpt>
      <trkpt lat="42.99912" lon="1.99465">
        <ele>364</ele>
        <time>2014-02-15T11:30:54.000Z</time>
      </trkpt>
      <trkpt lat="42.99911" lon="1.99471">
        <ele>364.5</ele>
        <time>2014-02-15T11:30:55.000Z</time>
      </trkpt>
      <trkpt lat="42.9991" lon="1.99478">
        <ele>365.4</ele>
        <time>2014-02-15T11:30:56.000Z</time>
      </trkpt>
      <trkpt lat="42.99909" lon="1.99485">
        <ele>364</ele>
        <time>2014-02-15T11:30:57.000Z</time>
      </trkpt>
      <trkpt lat="42.99906" lon="1.99499">
        <ele>365</ele>
        <time>2014-02-15T11:30:59.000Z</time>
      </trkpt>
      <trkpt lat="42.99902" lon="1.99519">
        <ele>365.4</ele>
        <time>2014-02-15T11:31:02.000Z</time>
      </trkpt>
      <trkpt lat="42.99901" lon="1.99526">
        <ele>365</ele>
        <time>2014-02-15T11:31:03.000Z</time>
      </trkpt>
      <trkpt lat="42.99887" lon="1.99617">
        <ele>365.9</ele>
        <time>2014-02-15T11:31:16.000Z</time>
      </trkpt>
      <trkpt lat="42.99878" lon="1.99681">
        <ele>364.5</ele>
        <time>2014-02-15T11:31:25.000Z</time>
      </trkpt>
      <trkpt lat="42.99876" lon="1.99688">
        <ele>364.5</ele>
        <time>2014-02-15T11:31:26.000Z</time>
      </trkpt>
      <trkpt lat="42.99875" lon="1.99695">
        <ele>365.4</ele>
        <time>2014-02-15T11:31:27.000Z</time>
      </trkpt>
      <trkpt lat="42.99874" lon="1.99703">
        <ele>365</ele>
        <time>2014-02-15T11:31:28.000Z</time>
      </trkpt>
      <trkpt lat="42.99873" lon="1.9971">
        <ele>365.4</ele>
        <time>2014-02-15T11:31:29.000Z</time>
      </trkpt>
      <trkpt lat="42.99872" lon="1.99716">
        <ele>366.4</ele>
        <time>2014-02-15T11:31:30.000Z</time>
      </trkpt>
      <trkpt lat="42.99871" lon="1.99723">
        <ele>365.4</ele>
        <time>2014-02-15T11:31:31.000Z</time>
      </trkpt>
      <trkpt lat="42.9987" lon="1.9973">
        <ele>365.9</ele>
        <time>2014-02-15T11:31:32.000Z</time>
      </trkpt>
      <trkpt lat="42.99869" lon="1.99737">
        <ele>364.5</ele>
        <time>2014-02-15T11:31:33.000Z</time>
      </trkpt>
      <trkpt lat="42.99868" lon="1.99751">
        <ele>364.5</ele>
        <time>2014-02-15T11:31:35.000Z</time>
      </trkpt>
      <trkpt lat="42.99867" lon="1.99757">
        <ele>364.5</ele>
        <time>2014-02-15T11:31:36.000Z</time>
      </trkpt>
      <trkpt lat="42.99863" lon="1.99777">
        <ele>365.4</ele>
        <time>2014-02-15T11:31:39.000Z</time>
      </trkpt>
      <trkpt lat="42.99858" lon="1.99804">
        <ele>365</ele>
        <time>2014-02-15T11:31:43.000Z</time>
      </trkpt>
      <trkpt lat="42.99856" lon="1.99811">
        <ele>365.4</ele>
        <time>2014-02-15T11:31:44.000Z</time>
      </trkpt>
      <trkpt lat="42.99855" lon="1.99818">
        <ele>366.4</ele>
        <time>2014-02-15T11:31:45.000Z</time>
      </trkpt>
      <trkpt lat="42.99852" lon="1.99831">
        <ele>366.4</ele>
        <time>2014-02-15T11:31:47.000Z</time>
      </trkpt>
      <trkpt lat="42.99851" lon="1.99838">
        <ele>365.9</ele>
        <time>2014-02-15T11:31:48.000Z</time>
      </trkpt>
      <trkpt lat="42.9985" lon="1.99845">
        <ele>365.9</ele>
        <time>2014-02-15T11:31:49.000Z</time>
      </trkpt>
      <trkpt lat="42.99848" lon="1.99857">
        <ele>365.9</ele>
        <time>2014-02-15T11:31:51.000Z</time>
      </trkpt>
      <trkpt lat="42.99845" lon="1.99876">
        <ele>365.4</ele>
        <time>2014-02-15T11:31:54.000Z</time>
      </trkpt>
      <trkpt lat="42.99842" lon="1.99889">
        <ele>366.9</ele>
        <time>2014-02-15T11:31:56.000Z</time>
      </trkpt>
      <trkpt lat="42.99841" lon="1.99895">
        <ele>366.9</ele>
        <time>2014-02-15T11:31:57.000Z</time>
      </trkpt>
      <trkpt lat="42.99838" lon="1.99909">
        <ele>365</ele>
        <time>2014-02-15T11:31:59.000Z</time>
      </trkpt>
      <trkpt lat="42.99837" lon="1.99915">
        <ele>365.4</ele>
        <time>2014-02-15T11:32:00.000Z</time>
      </trkpt>
      <trkpt lat="42.9983" lon="1.99944">
        <ele>366.4</ele>
        <time>2014-02-15T11:32:05.000Z</time>
      </trkpt>
      <trkpt lat="42.99828" lon="1.9995">
        <ele>366.4</ele>
        <time>2014-02-15T11:32:06.000Z</time>
      </trkpt>
      <trkpt lat="42.99827" lon="1.99954">
        <ele>365.4</ele>
        <time>2014-02-15T11:32:07.000Z</time>
      </trkpt>
      <trkpt lat="42.99825" lon="1.99957">
        <ele>366.4</ele>
        <time>2014-02-15T11:32:08.000Z</time>
      </trkpt>
      <trkpt lat="42.99816" lon="1.99964">
        <ele>366.9</ele>
        <time>2014-02-15T11:32:25.000Z</time>
      </trkpt>
      <trkpt lat="42.99812" lon="1.99979">
        <ele>366.4</ele>
        <time>2014-02-15T11:32:30.000Z</time>
      </trkpt>
      <trkpt lat="42.99804" lon="1.99996">
        <ele>366.9</ele>
        <time>2014-02-15T11:33:01.000Z</time>
      </trkpt>
      <trkpt lat="42.99789" lon="2.00032">
        <ele>399.5</ele>
        <time>2014-02-15T11:33:13.000Z</time>
      </trkpt>
      <trkpt lat="42.9977" lon="2.00072">
        <ele>395.1</ele>
        <time>2014-02-15T11:33:19.000Z</time>
      </trkpt>
      <trkpt lat="42.99705" lon="2.00153">
        <ele>368.3</ele>
        <time>2014-02-15T11:33:25.000Z</time>
      </trkpt>
      <trkpt lat="42.99744" lon="2.00109">
        <ele>379.7</ele>
        <time>2014-02-15T11:33:27.000Z</time>
      </trkpt>
      <trkpt lat="42.99652" lon="2.00186">
        <ele>367.4</ele>
        <time>2014-02-15T11:33:29.000Z</time>
      </trkpt>
      <trkpt lat="42.99624" lon="2.002">
        <ele>367.4</ele>
        <time>2014-02-15T11:33:30.000Z</time>
      </trkpt>
      <trkpt lat="42.99621" lon="2.00202">
        <ele>367.8</ele>
        <time>2014-02-15T11:33:31.000Z</time>
      </trkpt>
      <trkpt lat="42.99598" lon="2.00214">
        <ele>367.4</ele>
        <time>2014-02-15T11:33:42.000Z</time>
      </trkpt>
      <trkpt lat="42.99564" lon="2.00225">
        <ele>367.8</ele>
        <time>2014-02-15T11:33:52.000Z</time>
      </trkpt>
      <trkpt lat="42.99528" lon="2.00237">
        <ele>367.8</ele>
        <time>2014-02-15T11:34:04.000Z</time>
      </trkpt>
      <trkpt lat="42.99469" lon="2.00259">
        <ele>369.3</ele>
        <time>2014-02-15T11:34:18.000Z</time>
      </trkpt>
      <trkpt lat="42.9941" lon="2.00274">
        <ele>368.8</ele>
        <time>2014-02-15T11:34:30.000Z</time>
      </trkpt>
      <trkpt lat="42.99354" lon="2.00278">
        <ele>368.8</ele>
        <time>2014-02-15T11:34:41.000Z</time>
      </trkpt>
      <trkpt lat="42.99349" lon="2.00277">
        <ele>368.3</ele>
        <time>2014-02-15T11:34:42.000Z</time>
      </trkpt>
      <trkpt lat="42.99274" lon="2.0027">
        <ele>369.8</ele>
        <time>2014-02-15T11:34:57.000Z</time>
      </trkpt>
      <trkpt lat="42.9927" lon="2.00268">
        <ele>369.3</ele>
        <time>2014-02-15T11:34:58.000Z</time>
      </trkpt>
      <trkpt lat="42.99265" lon="2.00266">
        <ele>369.3</ele>
        <time>2014-02-15T11:34:59.000Z</time>
      </trkpt>
      <trkpt lat="42.9926" lon="2.00265">
        <ele>369.8</ele>
        <time>2014-02-15T11:35:00.000Z</time>
      </trkpt>
      <trkpt lat="42.99232" lon="2.00256">
        <ele>369.3</ele>
        <time>2014-02-15T11:35:06.000Z</time>
      </trkpt>
      <trkpt lat="42.99228" lon="2.00254">
        <ele>369.3</ele>
        <time>2014-02-15T11:35:07.000Z</time>
      </trkpt>
      <trkpt lat="42.99223" lon="2.00252">
        <ele>369.3</ele>
        <time>2014-02-15T11:35:08.000Z</time>
      </trkpt>
      <trkpt lat="42.99218" lon="2.0025">
        <ele>369.3</ele>
        <time>2014-02-15T11:35:09.000Z</time>
      </trkpt>
      <trkpt lat="42.99213" lon="2.00249">
        <ele>369.8</ele>
        <time>2014-02-15T11:35:10.000Z</time>
      </trkpt>
      <trkpt lat="42.99208" lon="2.00247">
        <ele>370.2</ele>
        <time>2014-02-15T11:35:11.000Z</time>
      </trkpt>
      <trkpt lat="42.99203" lon="2.00245">
        <ele>370.2</ele>
        <time>2014-02-15T11:35:12.000Z</time>
      </trkpt>
      <trkpt lat="42.99198" lon="2.00243">
        <ele>369.3</ele>
        <time>2014-02-15T11:35:13.000Z</time>
      </trkpt>
      <trkpt lat="42.99174" lon="2.00232">
        <ele>369.8</ele>
        <time>2014-02-15T11:35:18.000Z</time>
      </trkpt>
      <trkpt lat="42.99169" lon="2.0023">
        <ele>369.8</ele>
        <time>2014-02-15T11:35:19.000Z</time>
      </trkpt>
      <trkpt lat="42.99163" lon="2.00228">
        <ele>369.3</ele>
        <time>2014-02-15T11:35:20.000Z</time>
      </trkpt>
      <trkpt lat="42.99137" lon="2.00218">
        <ele>369.8</ele>
        <time>2014-02-15T11:35:25.000Z</time>
      </trkpt>
      <trkpt lat="42.99082" lon="2.00206">
        <ele>369.8</ele>
        <time>2014-02-15T11:35:35.000Z</time>
      </trkpt>
      <trkpt lat="42.99078" lon="2.00204">
        <ele>369.8</ele>
        <time>2014-02-15T11:35:36.000Z</time>
      </trkpt>
      <trkpt lat="42.99068" lon="2.00203">
        <ele>369.8</ele>
        <time>2014-02-15T11:35:38.000Z</time>
      </trkpt>
      <trkpt lat="42.9901" lon="2.00202">
        <ele>370.2</ele>
        <time>2014-02-15T11:35:50.000Z</time>
      </trkpt>
      <trkpt lat="42.99" lon="2.00205">
        <ele>370.2</ele>
        <time>2014-02-15T11:35:52.000Z</time>
      </trkpt>
      <trkpt lat="42.98972" lon="2.00209">
        <ele>368.8</ele>
        <time>2014-02-15T11:35:59.000Z</time>
      </trkpt>
      <trkpt lat="42.9895" lon="2.00213">
        <ele>370.2</ele>
        <time>2014-02-15T11:36:09.000Z</time>
      </trkpt>
      <trkpt lat="42.98932" lon="2.00216">
        <ele>370.2</ele>
        <time>2014-02-15T11:36:21.000Z</time>
      </trkpt>
      <trkpt lat="42.98932" lon="2.0022">
        <ele>370.7</ele>
        <time>2014-02-15T11:37:12.000Z</time>
      </trkpt>
      <trkpt lat="42.98914" lon="2.00231">
        <ele>369.3</ele>
        <time>2014-02-15T11:37:23.000Z</time>
      </trkpt>
      <trkpt lat="42.9886" lon="2.00251">
        <ele>369.8</ele>
        <time>2014-02-15T11:37:38.000Z</time>
      </trkpt>
      <trkpt lat="42.98808" lon="2.00278">
        <ele>370.2</ele>
        <time>2014-02-15T11:37:52.000Z</time>
      </trkpt>
      <trkpt lat="42.98776" lon="2.00289">
        <ele>370.2</ele>
        <time>2014-02-15T11:38:01.000Z</time>
      </trkpt>
      <trkpt lat="42.9875" lon="2.0029">
        <ele>369.8</ele>
        <time>2014-02-15T11:38:07.000Z</time>
      </trkpt>
      <trkpt lat="42.98746" lon="2.0029">
        <ele>369.8</ele>
        <time>2014-02-15T11:38:08.000Z</time>
      </trkpt>
      <trkpt lat="42.98718" lon="2.00296">
        <ele>369.3</ele>
        <time>2014-02-15T11:38:18.000Z</time>
      </trkpt>
      <trkpt lat="42.98695" lon="2.00293">
        <ele>369.3</ele>
        <time>2014-02-15T11:38:27.000Z</time>
      </trkpt>
      <trkpt lat="42.98696" lon="2.00283">
        <ele>370.2</ele>
        <time>2014-02-15T11:38:55.000Z</time>
      </trkpt>
      <trkpt lat="42.98695" lon="2.0028">
        <ele>369.8</ele>
        <time>2014-02-15T11:38:56.000Z</time>
      </trkpt>
      <trkpt lat="42.98695" lon="2.00278">
        <ele>369.8</ele>
        <time>2014-02-15T11:38:57.000Z</time>
      </trkpt>
      <trkpt lat="42.98695" lon="2.00276">
        <ele>370.2</ele>
        <time>2014-02-15T11:38:58.000Z</time>
      </trkpt>
      <trkpt lat="42.98694" lon="2.00274">
        <ele>369.8</ele>
        <time>2014-02-15T11:38:59.000Z</time>
      </trkpt>
      <trkpt lat="42.98694" lon="2.00272">
        <ele>369.8</ele>
        <time>2014-02-15T11:39:00.000Z</time>
      </trkpt>
      <trkpt lat="42.98693" lon="2.00267">
        <ele>370.2</ele>
        <time>2014-02-15T11:39:03.000Z</time>
      </trkpt>
      <trkpt lat="42.98674" lon="2.00262">
        <ele>370.2</ele>
        <time>2014-02-15T11:39:24.000Z</time>
      </trkpt>
      <trkpt lat="42.98633" lon="2.00272">
        <ele>369.8</ele>
        <time>2014-02-15T11:39:36.000Z</time>
      </trkpt>
      <trkpt lat="42.98584" lon="2.00282">
        <ele>369.3</ele>
        <time>2014-02-15T11:39:50.000Z</time>
      </trkpt>
      <trkpt lat="42.98549" lon="2.00286">
        <ele>370.2</ele>
        <time>2014-02-15T11:39:59.000Z</time>
      </trkpt>
      <trkpt lat="42.98546" lon="2.00287">
        <ele>370.2</ele>
        <time>2014-02-15T11:40:00.000Z</time>
      </trkpt>
      <trkpt lat="42.98542" lon="2.00287">
        <ele>369.8</ele>
        <time>2014-02-15T11:40:01.000Z</time>
      </trkpt>
      <trkpt lat="42.98538" lon="2.00287">
        <ele>370.2</ele>
        <time>2014-02-15T11:40:02.000Z</time>
      </trkpt>
      <trkpt lat="42.98534" lon="2.00287">
        <ele>369.8</ele>
        <time>2014-02-15T11:40:03.000Z</time>
      </trkpt>
      <trkpt lat="42.98531" lon="2.00287">
        <ele>370.2</ele>
        <time>2014-02-15T11:40:04.000Z</time>
      </trkpt>
      <trkpt lat="42.98528" lon="2.00287">
        <ele>369.8</ele>
        <time>2014-02-15T11:40:05.000Z</time>
      </trkpt>
      <trkpt lat="42.98524" lon="2.00288">
        <ele>370.2</ele>
        <time>2014-02-15T11:40:06.000Z</time>
      </trkpt>
      <trkpt lat="42.9849" lon="2.00289">
        <ele>370.7</ele>
        <time>2014-02-15T11:40:18.000Z</time>
      </trkpt>
      <trkpt lat="42.98434" lon="2.00282">
        <ele>371.2</ele>
        <time>2014-02-15T11:40:33.000Z</time>
      </trkpt>
      <trkpt lat="42.98358" lon="2.0026">
        <ele>371.2</ele>
        <time>2014-02-15T11:40:52.000Z</time>
      </trkpt>
      <trkpt lat="42.98295" lon="2.00241">
        <ele>373.1</ele>
        <time>2014-02-15T11:41:07.000Z</time>
      </trkpt>
      <trkpt lat="42.98266" lon="2.0023">
        <ele>372.7</ele>
        <time>2014-02-15T11:41:16.000Z</time>
      </trkpt>
      <trkpt lat="42.98237" lon="2.00218">
        <ele>372.2</ele>
        <time>2014-02-15T11:41:26.000Z</time>
      </trkpt>
      <trkpt lat="42.98225" lon="2.00219">
        <ele>373.1</ele>
        <time>2014-02-15T11:41:31.000Z</time>
      </trkpt>
      <trkpt lat="42.98223" lon="2.00219">
        <ele>372.7</ele>
        <time>2014-02-15T11:41:32.000Z</time>
      </trkpt>
      <trkpt lat="42.98229" lon="2.00209">
        <ele>373.6</ele>
        <time>2014-02-15T11:41:38.000Z</time>
      </trkpt>
      <trkpt lat="42.98232" lon="2.0021">
        <ele>373.1</ele>
        <time>2014-02-15T11:41:39.000Z</time>
      </trkpt>
      <trkpt lat="42.98249" lon="2.00211">
        <ele>370.7</ele>
        <time>2014-02-15T11:41:45.000Z</time>
      </trkpt>
      <trkpt lat="42.98252" lon="2.0021">
        <ele>370.2</ele>
        <time>2014-02-15T11:41:47.000Z</time>
      </trkpt>
      <trkpt lat="42.9826" lon="2.00204">
        <ele>369.3</ele>
        <time>2014-02-15T11:41:56.000Z</time>
      </trkpt>
      <trkpt lat="42.98261" lon="2.00203">
        <ele>369.8</ele>
        <time>2014-02-15T11:41:57.000Z</time>
      </trkpt>
      <trkpt lat="42.98263" lon="2.00201">
        <ele>369.8</ele>
        <time>2014-02-15T11:41:58.000Z</time>
      </trkpt>
      <trkpt lat="42.98265" lon="2.00199">
        <ele>369.8</ele>
        <time>2014-02-15T11:41:59.000Z</time>
      </trkpt>
      <trkpt lat="42.98266" lon="2.00196">
        <ele>369.8</ele>
        <time>2014-02-15T11:42:00.000Z</time>
      </trkpt>
      <trkpt lat="42.98268" lon="2.00192">
        <ele>369.8</ele>
        <time>2014-02-15T11:42:01.000Z</time>
      </trkpt>
      <trkpt lat="42.9827" lon="2.00189">
        <ele>369.3</ele>
        <time>2014-02-15T11:42:02.000Z</time>
      </trkpt>
      <trkpt lat="42.98272" lon="2.00187">
        <ele>369.3</ele>
        <time>2014-02-15T11:42:03.000Z</time>
      </trkpt>
      <trkpt lat="42.98288" lon="2.00164">
        <ele>369.3</ele>
        <time>2014-02-15T11:42:14.000Z</time>
      </trkpt>
      <trkpt lat="42.98299" lon="2.0015">
        <ele>368.8</ele>
        <time>2014-02-15T11:42:25.000Z</time>
      </trkpt>
      <trkpt lat="42.98299" lon="2.0015">
        <ele>367.8</ele>
        <time>2014-02-15T11:42:39.000Z</time>
      </trkpt>
      <trkpt lat="42.98299" lon="2.0015">
        <ele>369.3</ele>
        <time>2014-02-15T11:43:33.000Z</time>
      </trkpt>
      <trkpt lat="42.98299" lon="2.00149">
        <ele>369.3</ele>
        <time>2014-02-15T11:43:52.000Z</time>
      </trkpt>
      <trkpt lat="42.98307" lon="2.00152">
        <ele>368.3</ele>
        <time>2014-02-15T11:44:05.000Z</time>
      </trkpt>
    </trkseg>
  </trk>
</gpx>